<?xml version="1.0" encoding="UTF-8" standalone="no" ?>
<gpx xmlns="http://www.topografix.com/GPX/1/1" xmlns:xsi="http://www.w3.org/2001/XMLSchema-instance" xsi:schemaLocation="http://www.topografix.com/GPX/1/1 http://www.topografix.com/GPX/1/1/gpx.xsd" version="1.1" creator="VisuGPX - https://www.visugpx.com">
  <metadata>
    <name>malbosc</name>
  </metadata>
  <wpt lat="44.34649" lon="4.07317">
    <ele>466.2</ele>
    <name><![CDATA[0000386]]></name>
    <type><![CDATA[Point de départ]]></type>
  </wpt>
  <wpt lat="44.34649" lon="4.07317">
    <ele>466.2</ele>
    <name><![CDATA[0000386]]></name>
    <type><![CDATA[Point de départ]]></type>
  </wpt>
  <wpt lat="44.33125" lon="4.06912">
    <ele>500</ele>
    <name><![CDATA[0000388]]></name>
    <type><![CDATA[Point d'arrivée]]></type>
  </wpt>
  <wpt lat="44.34649" lon="4.07317">
    <ele>466.2</ele>
    <name><![CDATA[0000386]]></name>
    <type><![CDATA[Point de départ]]></type>
  </wpt>
  <wpt lat="44.34649" lon="4.07317">
    <ele>466.2</ele>
    <name><![CDATA[0000386]]></name>
    <type><![CDATA[Point de départ]]></type>
  </wpt>
  <wpt lat="44.33125" lon="4.06912">
    <ele>500</ele>
    <name><![CDATA[0000388]]></name>
    <type><![CDATA[Point d'arrivée]]></type>
  </wpt>
  <wpt lat="44.34614" lon="4.07362">
    <ele>460.9</ele>
  </wpt>
  <wpt lat="44.34921" lon="4.07479">
    <ele>439.1</ele>
  </wpt>
  <wpt lat="44.34649" lon="4.07317">
    <ele>466.2</ele>
    <name><![CDATA[0000386]]></name>
    <type><![CDATA[Point de départ]]></type>
  </wpt>
  <wpt lat="44.34649" lon="4.07317">
    <ele>466.2</ele>
    <name><![CDATA[0000386]]></name>
    <type><![CDATA[Point de départ]]></type>
  </wpt>
  <wpt lat="44.33125" lon="4.06912">
    <ele>500</ele>
    <name><![CDATA[0000388]]></name>
    <type><![CDATA[Point d'arrivée]]></type>
  </wpt>
  <trk>
    <name><![CDATA[2020-10-12 09:14:36]]></name>
    <extensions>
      <line xmlns="http://www.topografix.com/GPX/gpx_style/0/2">
        <color>0000FF</color>
        <width>4</width>
      </line>
    </extensions>
    <trkseg>
      <trkpt lat="44.34649" lon="4.07317">
        <ele>463.63</ele>
        <time>2020-10-12T07:14:33.000Z</time>
      </trkpt>
      <trkpt lat="44.34649" lon="4.07317">
        <ele>463.63</ele>
        <time>2020-10-12T07:14:33.000Z</time>
      </trkpt>
      <trkpt lat="44.34638" lon="4.07296">
        <ele>464.88</ele>
        <time>2020-10-12T07:14:49.000Z</time>
      </trkpt>
      <trkpt lat="44.34636" lon="4.07271">
        <ele>468.88</ele>
        <time>2020-10-12T07:15:06.000Z</time>
      </trkpt>
      <trkpt lat="44.34638" lon="4.07245">
        <ele>468.06</ele>
        <time>2020-10-12T07:15:21.000Z</time>
      </trkpt>
      <trkpt lat="44.34641" lon="4.07219">
        <ele>462.34</ele>
        <time>2020-10-12T07:15:36.000Z</time>
      </trkpt>
      <trkpt lat="44.34645" lon="4.07194">
        <ele>458.97</ele>
        <time>2020-10-12T07:15:56.000Z</time>
      </trkpt>
      <trkpt lat="44.34657" lon="4.07175">
        <ele>460.93</ele>
        <time>2020-10-12T07:16:06.000Z</time>
      </trkpt>
      <trkpt lat="44.34663" lon="4.07151">
        <ele>462.26</ele>
        <time>2020-10-12T07:16:23.000Z</time>
      </trkpt>
      <trkpt lat="44.34676" lon="4.07132">
        <ele>466.2</ele>
        <time>2020-10-12T07:16:36.000Z</time>
      </trkpt>
      <trkpt lat="44.34694" lon="4.07123">
        <ele>465.03</ele>
        <time>2020-10-12T07:17:21.000Z</time>
      </trkpt>
      <trkpt lat="44.34712" lon="4.07112">
        <ele>458.44</ele>
        <time>2020-10-12T07:17:37.000Z</time>
      </trkpt>
      <trkpt lat="44.34727" lon="4.07097">
        <ele>459.6</ele>
        <time>2020-10-12T07:18:04.000Z</time>
      </trkpt>
      <trkpt lat="44.34743" lon="4.07086">
        <ele>464.72</ele>
        <time>2020-10-12T07:18:22.000Z</time>
      </trkpt>
      <trkpt lat="44.34759" lon="4.07071">
        <ele>459.76</ele>
        <time>2020-10-12T07:18:37.000Z</time>
      </trkpt>
      <trkpt lat="44.34767" lon="4.07095">
        <ele>454.87</ele>
        <time>2020-10-12T07:19:01.000Z</time>
      </trkpt>
      <trkpt lat="44.34771" lon="4.0712">
        <ele>451.14</ele>
        <time>2020-10-12T07:19:23.000Z</time>
      </trkpt>
      <trkpt lat="44.34766" lon="4.07146">
        <ele>439.33</ele>
        <time>2020-10-12T07:19:42.000Z</time>
      </trkpt>
      <trkpt lat="44.34783" lon="4.07154">
        <ele>426.44</ele>
        <time>2020-10-12T07:20:25.000Z</time>
      </trkpt>
      <trkpt lat="44.34793" lon="4.07133">
        <ele>429.03</ele>
        <time>2020-10-12T07:20:45.000Z</time>
      </trkpt>
      <trkpt lat="44.34811" lon="4.07128">
        <ele>432</ele>
        <time>2020-10-12T07:21:20.000Z</time>
      </trkpt>
      <trkpt lat="44.3483" lon="4.0713">
        <ele>433.99</ele>
        <time>2020-10-12T07:21:30.000Z</time>
      </trkpt>
      <trkpt lat="44.34848" lon="4.07127">
        <ele>422.67</ele>
        <time>2020-10-12T07:21:50.000Z</time>
      </trkpt>
      <trkpt lat="44.34866" lon="4.07122">
        <ele>420.02</ele>
        <time>2020-10-12T07:22:27.000Z</time>
      </trkpt>
      <trkpt lat="44.34885" lon="4.07121">
        <ele>422.05</ele>
        <time>2020-10-12T07:22:44.000Z</time>
      </trkpt>
      <trkpt lat="44.34903" lon="4.07128">
        <ele>422.6</ele>
        <time>2020-10-12T07:22:56.000Z</time>
      </trkpt>
      <trkpt lat="44.34921" lon="4.07129">
        <ele>407.19</ele>
        <time>2020-10-12T07:23:22.000Z</time>
      </trkpt>
      <trkpt lat="44.34939" lon="4.07134">
        <ele>400.05</ele>
        <time>2020-10-12T07:25:06.000Z</time>
      </trkpt>
      <trkpt lat="44.34957" lon="4.07128">
        <ele>393.07</ele>
        <time>2020-10-12T07:25:25.000Z</time>
      </trkpt>
      <trkpt lat="44.34975" lon="4.07131">
        <ele>388.82</ele>
        <time>2020-10-12T07:25:43.000Z</time>
      </trkpt>
      <trkpt lat="44.34993" lon="4.07135">
        <ele>388.72</ele>
        <time>2020-10-12T07:25:59.000Z</time>
      </trkpt>
      <trkpt lat="44.3501" lon="4.07145">
        <ele>390.93</ele>
        <time>2020-10-12T07:26:20.000Z</time>
      </trkpt>
      <trkpt lat="44.35029" lon="4.07149">
        <ele>390.06</ele>
        <time>2020-10-12T07:26:38.000Z</time>
      </trkpt>
      <trkpt lat="44.35046" lon="4.07156">
        <ele>389.93</ele>
        <time>2020-10-12T07:26:53.000Z</time>
      </trkpt>
      <trkpt lat="44.35063" lon="4.07166">
        <ele>387.06</ele>
        <time>2020-10-12T07:27:07.000Z</time>
      </trkpt>
      <trkpt lat="44.35081" lon="4.07176">
        <ele>389.03</ele>
        <time>2020-10-12T07:27:25.000Z</time>
      </trkpt>
      <trkpt lat="44.35097" lon="4.07187">
        <ele>383</ele>
        <time>2020-10-12T07:27:44.000Z</time>
      </trkpt>
      <trkpt lat="44.35115" lon="4.07191">
        <ele>376.31</ele>
        <time>2020-10-12T07:28:05.000Z</time>
      </trkpt>
      <trkpt lat="44.35133" lon="4.07198">
        <ele>375.82</ele>
        <time>2020-10-12T07:28:25.000Z</time>
      </trkpt>
      <trkpt lat="44.3515" lon="4.07206">
        <ele>375.8</ele>
        <time>2020-10-12T07:28:41.000Z</time>
      </trkpt>
      <trkpt lat="44.35166" lon="4.07217">
        <ele>379.29</ele>
        <time>2020-10-12T07:28:56.000Z</time>
      </trkpt>
      <trkpt lat="44.35184" lon="4.07227">
        <ele>376.92</ele>
        <time>2020-10-12T07:29:19.000Z</time>
      </trkpt>
      <trkpt lat="44.35201" lon="4.07234">
        <ele>378.72</ele>
        <time>2020-10-12T07:29:34.000Z</time>
      </trkpt>
      <trkpt lat="44.35219" lon="4.07241">
        <ele>379</ele>
        <time>2020-10-12T07:29:49.000Z</time>
      </trkpt>
      <trkpt lat="44.35236" lon="4.07252">
        <ele>381.21</ele>
        <time>2020-10-12T07:30:04.000Z</time>
      </trkpt>
      <trkpt lat="44.35254" lon="4.07256">
        <ele>379.85</ele>
        <time>2020-10-12T07:30:25.000Z</time>
      </trkpt>
      <trkpt lat="44.35272" lon="4.07259">
        <ele>371.79</ele>
        <time>2020-10-12T07:30:45.000Z</time>
      </trkpt>
      <trkpt lat="44.35285" lon="4.07241">
        <ele>367.34</ele>
        <time>2020-10-12T07:31:12.000Z</time>
      </trkpt>
      <trkpt lat="44.35292" lon="4.07217">
        <ele>366.8</ele>
        <time>2020-10-12T07:31:33.000Z</time>
      </trkpt>
      <trkpt lat="44.35309" lon="4.07204">
        <ele>366.42</ele>
        <time>2020-10-12T07:31:52.000Z</time>
      </trkpt>
      <trkpt lat="44.3532" lon="4.07183">
        <ele>367.71</ele>
        <time>2020-10-12T07:32:07.000Z</time>
      </trkpt>
      <trkpt lat="44.35322" lon="4.07158">
        <ele>361.08</ele>
        <time>2020-10-12T07:32:30.000Z</time>
      </trkpt>
      <trkpt lat="44.35328" lon="4.07134">
        <ele>362.32</ele>
        <time>2020-10-12T07:32:48.000Z</time>
      </trkpt>
      <trkpt lat="44.35336" lon="4.07111">
        <ele>357.03</ele>
        <time>2020-10-12T07:33:13.000Z</time>
      </trkpt>
      <trkpt lat="44.35352" lon="4.07122">
        <ele>343.43</ele>
        <time>2020-10-12T07:34:09.000Z</time>
      </trkpt>
      <trkpt lat="44.35359" lon="4.07099">
        <ele>335</ele>
        <time>2020-10-12T07:34:59.000Z</time>
      </trkpt>
      <trkpt lat="44.35377" lon="4.07099">
        <ele>331.02</ele>
        <time>2020-10-12T07:35:21.000Z</time>
      </trkpt>
      <trkpt lat="44.35396" lon="4.07101">
        <ele>325.7</ele>
        <time>2020-10-12T07:35:42.000Z</time>
      </trkpt>
      <trkpt lat="44.35411" lon="4.07087">
        <ele>318.4</ele>
        <time>2020-10-12T07:36:39.000Z</time>
      </trkpt>
      <trkpt lat="44.35395" lon="4.07072">
        <ele>315.92</ele>
        <time>2020-10-12T07:37:31.000Z</time>
      </trkpt>
      <trkpt lat="44.35377" lon="4.07064">
        <ele>314.26</ele>
        <time>2020-10-12T07:37:57.000Z</time>
      </trkpt>
      <trkpt lat="44.35386" lon="4.07042">
        <ele>300.65</ele>
        <time>2020-10-12T07:39:11.000Z</time>
      </trkpt>
      <trkpt lat="44.35397" lon="4.07021">
        <ele>305.34</ele>
        <time>2020-10-12T07:41:00.000Z</time>
      </trkpt>
      <trkpt lat="44.3541" lon="4.07002">
        <ele>305.92</ele>
        <time>2020-10-12T07:41:36.000Z</time>
      </trkpt>
      <trkpt lat="44.35426" lon="4.06989">
        <ele>308.24</ele>
        <time>2020-10-12T07:41:55.000Z</time>
      </trkpt>
      <trkpt lat="44.35444" lon="4.06995">
        <ele>306.32</ele>
        <time>2020-10-12T07:42:19.000Z</time>
      </trkpt>
      <trkpt lat="44.35462" lon="4.06996">
        <ele>306.1</ele>
        <time>2020-10-12T07:42:34.000Z</time>
      </trkpt>
      <trkpt lat="44.3548" lon="4.07001">
        <ele>311.53</ele>
        <time>2020-10-12T07:43:11.000Z</time>
      </trkpt>
      <trkpt lat="44.35499" lon="4.07001">
        <ele>311.54</ele>
        <time>2020-10-12T07:43:37.000Z</time>
      </trkpt>
      <trkpt lat="44.35517" lon="4.07">
        <ele>312.92</ele>
        <time>2020-10-12T07:43:50.000Z</time>
      </trkpt>
      <trkpt lat="44.35534" lon="4.0701">
        <ele>323.26</ele>
        <time>2020-10-12T07:44:25.000Z</time>
      </trkpt>
      <trkpt lat="44.35551" lon="4.07021">
        <ele>327.8</ele>
        <time>2020-10-12T07:44:43.000Z</time>
      </trkpt>
      <trkpt lat="44.3556" lon="4.07043">
        <ele>327.45</ele>
        <time>2020-10-12T07:45:09.000Z</time>
      </trkpt>
      <trkpt lat="44.35572" lon="4.07062">
        <ele>330.04</ele>
        <time>2020-10-12T07:45:32.000Z</time>
      </trkpt>
      <trkpt lat="44.35587" lon="4.07078">
        <ele>334.91</ele>
        <time>2020-10-12T07:46:03.000Z</time>
      </trkpt>
      <trkpt lat="44.356" lon="4.07096">
        <ele>334.71</ele>
        <time>2020-10-12T07:46:22.000Z</time>
      </trkpt>
      <trkpt lat="44.3561" lon="4.07118">
        <ele>341.62</ele>
        <time>2020-10-12T07:50:27.000Z</time>
      </trkpt>
      <trkpt lat="44.35623" lon="4.07135">
        <ele>337.86</ele>
        <time>2020-10-12T07:50:52.000Z</time>
      </trkpt>
      <trkpt lat="44.35641" lon="4.07129">
        <ele>347.96</ele>
        <time>2020-10-12T07:51:39.000Z</time>
      </trkpt>
      <trkpt lat="44.35644" lon="4.07104">
        <ele>358.22</ele>
        <time>2020-10-12T07:52:39.000Z</time>
      </trkpt>
      <trkpt lat="44.35649" lon="4.0708">
        <ele>370.67</ele>
        <time>2020-10-12T07:53:21.000Z</time>
      </trkpt>
      <trkpt lat="44.35653" lon="4.07055">
        <ele>371.91</ele>
        <time>2020-10-12T07:53:53.000Z</time>
      </trkpt>
      <trkpt lat="44.35649" lon="4.07029">
        <ele>387.42</ele>
        <time>2020-10-12T07:54:40.000Z</time>
      </trkpt>
      <trkpt lat="44.35667" lon="4.07023">
        <ele>383.04</ele>
        <time>2020-10-12T07:55:02.000Z</time>
      </trkpt>
      <trkpt lat="44.35673" lon="4.06999">
        <ele>390.71</ele>
        <time>2020-10-12T07:56:00.000Z</time>
      </trkpt>
      <trkpt lat="44.35665" lon="4.06976">
        <ele>395.68</ele>
        <time>2020-10-12T07:56:24.000Z</time>
      </trkpt>
      <trkpt lat="44.35674" lon="4.06953">
        <ele>399</ele>
        <time>2020-10-12T07:56:57.000Z</time>
      </trkpt>
      <trkpt lat="44.35691" lon="4.06943">
        <ele>402.14</ele>
        <time>2020-10-12T07:57:21.000Z</time>
      </trkpt>
      <trkpt lat="44.35701" lon="4.06922">
        <ele>416.03</ele>
        <time>2020-10-12T07:58:02.000Z</time>
      </trkpt>
      <trkpt lat="44.35715" lon="4.06904">
        <ele>414.8</ele>
        <time>2020-10-12T07:58:27.000Z</time>
      </trkpt>
      <trkpt lat="44.35728" lon="4.06886">
        <ele>417.99</ele>
        <time>2020-10-12T07:58:54.000Z</time>
      </trkpt>
      <trkpt lat="44.35738" lon="4.06865">
        <ele>421.91</ele>
        <time>2020-10-12T07:59:27.000Z</time>
      </trkpt>
      <trkpt lat="44.35755" lon="4.06855">
        <ele>424.68</ele>
        <time>2020-10-12T07:59:47.000Z</time>
      </trkpt>
      <trkpt lat="44.35774" lon="4.06854">
        <ele>434</ele>
        <time>2020-10-12T08:03:14.000Z</time>
      </trkpt>
      <trkpt lat="44.35792" lon="4.06858">
        <ele>433.77</ele>
        <time>2020-10-12T08:03:37.000Z</time>
      </trkpt>
      <trkpt lat="44.35811" lon="4.06862">
        <ele>435.65</ele>
        <time>2020-10-12T08:03:55.000Z</time>
      </trkpt>
      <trkpt lat="44.35829" lon="4.06869">
        <ele>435.79</ele>
        <time>2020-10-12T08:04:13.000Z</time>
      </trkpt>
      <trkpt lat="44.35847" lon="4.06876">
        <ele>435.02</ele>
        <time>2020-10-12T08:04:31.000Z</time>
      </trkpt>
      <trkpt lat="44.35866" lon="4.06883">
        <ele>436.33</ele>
        <time>2020-10-12T08:04:46.000Z</time>
      </trkpt>
      <trkpt lat="44.35884" lon="4.06887">
        <ele>432.17</ele>
        <time>2020-10-12T08:05:02.000Z</time>
      </trkpt>
      <trkpt lat="44.35902" lon="4.06891">
        <ele>435</ele>
        <time>2020-10-12T08:05:22.000Z</time>
      </trkpt>
      <trkpt lat="44.3592" lon="4.06882">
        <ele>437.06</ele>
        <time>2020-10-12T08:05:53.000Z</time>
      </trkpt>
      <trkpt lat="44.35936" lon="4.06865">
        <ele>437.89</ele>
        <time>2020-10-12T08:06:19.000Z</time>
      </trkpt>
      <trkpt lat="44.35923" lon="4.06882">
        <ele>438.92</ele>
        <time>2020-10-12T08:07:03.000Z</time>
      </trkpt>
      <trkpt lat="44.35907" lon="4.06897">
        <ele>438.29</ele>
        <time>2020-10-12T08:07:18.000Z</time>
      </trkpt>
      <trkpt lat="44.35889" lon="4.06898">
        <ele>430.99</ele>
        <time>2020-10-12T08:07:38.000Z</time>
      </trkpt>
      <trkpt lat="44.3587" lon="4.06897">
        <ele>430.3</ele>
        <time>2020-10-12T08:07:53.000Z</time>
      </trkpt>
      <trkpt lat="44.35852" lon="4.06893">
        <ele>430</ele>
        <time>2020-10-12T08:08:10.000Z</time>
      </trkpt>
      <trkpt lat="44.35833" lon="4.06896">
        <ele>430.98</ele>
        <time>2020-10-12T08:08:25.000Z</time>
      </trkpt>
      <trkpt lat="44.35815" lon="4.06895">
        <ele>432.31</ele>
        <time>2020-10-12T08:08:42.000Z</time>
      </trkpt>
      <trkpt lat="44.35795" lon="4.06895">
        <ele>430.98</ele>
        <time>2020-10-12T08:08:56.000Z</time>
      </trkpt>
      <trkpt lat="44.35777" lon="4.06899">
        <ele>429.29</ele>
        <time>2020-10-12T08:09:09.000Z</time>
      </trkpt>
      <trkpt lat="44.35796" lon="4.06904">
        <ele>420.31</ele>
        <time>2020-10-12T08:09:45.000Z</time>
      </trkpt>
      <trkpt lat="44.35814" lon="4.06913">
        <ele>420.77</ele>
        <time>2020-10-12T08:10:03.000Z</time>
      </trkpt>
      <trkpt lat="44.35832" lon="4.0692">
        <ele>427.66</ele>
        <time>2020-10-12T08:10:23.000Z</time>
      </trkpt>
      <trkpt lat="44.35849" lon="4.06928">
        <ele>430.01</ele>
        <time>2020-10-12T08:10:38.000Z</time>
      </trkpt>
      <trkpt lat="44.35867" lon="4.06937">
        <ele>420.39</ele>
        <time>2020-10-12T08:10:57.000Z</time>
      </trkpt>
      <trkpt lat="44.35882" lon="4.06953">
        <ele>419.95</ele>
        <time>2020-10-12T08:11:16.000Z</time>
      </trkpt>
      <trkpt lat="44.35901" lon="4.06955">
        <ele>417.18</ele>
        <time>2020-10-12T08:11:30.000Z</time>
      </trkpt>
      <trkpt lat="44.3592" lon="4.06954">
        <ele>411.61</ele>
        <time>2020-10-12T08:11:46.000Z</time>
      </trkpt>
      <trkpt lat="44.35937" lon="4.06945">
        <ele>408.83</ele>
        <time>2020-10-12T08:12:02.000Z</time>
      </trkpt>
      <trkpt lat="44.35953" lon="4.06933">
        <ele>408.81</ele>
        <time>2020-10-12T08:12:18.000Z</time>
      </trkpt>
      <trkpt lat="44.35971" lon="4.06925">
        <ele>408.86</ele>
        <time>2020-10-12T08:12:32.000Z</time>
      </trkpt>
      <trkpt lat="44.35989" lon="4.06918">
        <ele>407.81</ele>
        <time>2020-10-12T08:12:49.000Z</time>
      </trkpt>
      <trkpt lat="44.36005" lon="4.06903">
        <ele>406</ele>
        <time>2020-10-12T08:13:02.000Z</time>
      </trkpt>
      <trkpt lat="44.36022" lon="4.06889">
        <ele>404.73</ele>
        <time>2020-10-12T08:13:17.000Z</time>
      </trkpt>
      <trkpt lat="44.36031" lon="4.06862">
        <ele>405.49</ele>
        <time>2020-10-12T08:13:25.000Z</time>
      </trkpt>
      <trkpt lat="44.36049" lon="4.06854">
        <ele>406.08</ele>
        <time>2020-10-12T08:13:43.000Z</time>
      </trkpt>
      <trkpt lat="44.36063" lon="4.06872">
        <ele>403.92</ele>
        <time>2020-10-12T08:13:58.000Z</time>
      </trkpt>
      <trkpt lat="44.36079" lon="4.06885">
        <ele>401.41</ele>
        <time>2020-10-12T08:14:14.000Z</time>
      </trkpt>
      <trkpt lat="44.36087" lon="4.06909">
        <ele>394.79</ele>
        <time>2020-10-12T08:14:32.000Z</time>
      </trkpt>
      <trkpt lat="44.36104" lon="4.06903">
        <ele>398.01</ele>
        <time>2020-10-12T08:14:46.000Z</time>
      </trkpt>
      <trkpt lat="44.36121" lon="4.06893">
        <ele>393.08</ele>
        <time>2020-10-12T08:15:01.000Z</time>
      </trkpt>
      <trkpt lat="44.3611" lon="4.06915">
        <ele>392.62</ele>
        <time>2020-10-12T08:15:53.000Z</time>
      </trkpt>
      <trkpt lat="44.36095" lon="4.06932">
        <ele>384.03</ele>
        <time>2020-10-12T08:16:07.000Z</time>
      </trkpt>
      <trkpt lat="44.36115" lon="4.06929">
        <ele>387.09</ele>
        <time>2020-10-12T08:16:51.000Z</time>
      </trkpt>
      <trkpt lat="44.36134" lon="4.06928">
        <ele>384.11</ele>
        <time>2020-10-12T08:17:00.000Z</time>
      </trkpt>
      <trkpt lat="44.36147" lon="4.06909">
        <ele>383.66</ele>
        <time>2020-10-12T08:17:24.000Z</time>
      </trkpt>
      <trkpt lat="44.36156" lon="4.06887">
        <ele>391.49</ele>
        <time>2020-10-12T08:17:55.000Z</time>
      </trkpt>
      <trkpt lat="44.36167" lon="4.06866">
        <ele>386.34</ele>
        <time>2020-10-12T08:18:46.000Z</time>
      </trkpt>
      <trkpt lat="44.36185" lon="4.06869">
        <ele>387.97</ele>
        <time>2020-10-12T08:19:11.000Z</time>
      </trkpt>
      <trkpt lat="44.362" lon="4.06888">
        <ele>384.68</ele>
        <time>2020-10-12T08:19:48.000Z</time>
      </trkpt>
      <trkpt lat="44.36209" lon="4.06911">
        <ele>384.11</ele>
        <time>2020-10-12T08:20:22.000Z</time>
      </trkpt>
      <trkpt lat="44.36223" lon="4.06927">
        <ele>389.49</ele>
        <time>2020-10-12T08:21:31.000Z</time>
      </trkpt>
      <trkpt lat="44.3623" lon="4.0695">
        <ele>397.36</ele>
        <time>2020-10-12T08:21:40.000Z</time>
      </trkpt>
      <trkpt lat="44.36243" lon="4.06968">
        <ele>402.01</ele>
        <time>2020-10-12T08:22:01.000Z</time>
      </trkpt>
      <trkpt lat="44.36254" lon="4.0699">
        <ele>412.65</ele>
        <time>2020-10-12T08:23:07.000Z</time>
      </trkpt>
      <trkpt lat="44.36267" lon="4.07008">
        <ele>418.31</ele>
        <time>2020-10-12T08:23:18.000Z</time>
      </trkpt>
      <trkpt lat="44.36275" lon="4.07031">
        <ele>417.6</ele>
        <time>2020-10-12T08:23:59.000Z</time>
      </trkpt>
      <trkpt lat="44.36266" lon="4.07053">
        <ele>422.15</ele>
        <time>2020-10-12T08:24:41.000Z</time>
      </trkpt>
      <trkpt lat="44.36253" lon="4.07071">
        <ele>429.63</ele>
        <time>2020-10-12T08:24:58.000Z</time>
      </trkpt>
      <trkpt lat="44.3625" lon="4.07096">
        <ele>435.14</ele>
        <time>2020-10-12T08:25:28.000Z</time>
      </trkpt>
      <trkpt lat="44.36267" lon="4.07104">
        <ele>441.11</ele>
        <time>2020-10-12T08:26:00.000Z</time>
      </trkpt>
      <trkpt lat="44.36285" lon="4.07115">
        <ele>442.98</ele>
        <time>2020-10-12T08:26:21.000Z</time>
      </trkpt>
      <trkpt lat="44.36294" lon="4.07137">
        <ele>453.78</ele>
        <time>2020-10-12T08:27:12.000Z</time>
      </trkpt>
      <trkpt lat="44.36311" lon="4.07145">
        <ele>447.97</ele>
        <time>2020-10-12T08:27:32.000Z</time>
      </trkpt>
      <trkpt lat="44.36293" lon="4.07149">
        <ele>453</ele>
        <time>2020-10-12T08:28:05.000Z</time>
      </trkpt>
      <trkpt lat="44.36308" lon="4.07166">
        <ele>466.59</ele>
        <time>2020-10-12T08:29:00.000Z</time>
      </trkpt>
      <trkpt lat="44.36294" lon="4.07183">
        <ele>468.78</ele>
        <time>2020-10-12T08:29:45.000Z</time>
      </trkpt>
      <trkpt lat="44.36275" lon="4.07183">
        <ele>476.58</ele>
        <time>2020-10-12T08:30:04.000Z</time>
      </trkpt>
      <trkpt lat="44.36285" lon="4.07205">
        <ele>481.63</ele>
        <time>2020-10-12T08:31:29.000Z</time>
      </trkpt>
      <trkpt lat="44.36302" lon="4.07216">
        <ele>480.23</ele>
        <time>2020-10-12T08:32:02.000Z</time>
      </trkpt>
      <trkpt lat="44.3632" lon="4.07219">
        <ele>491.97</ele>
        <time>2020-10-12T08:32:31.000Z</time>
      </trkpt>
      <trkpt lat="44.36337" lon="4.07227">
        <ele>495.9</ele>
        <time>2020-10-12T08:32:56.000Z</time>
      </trkpt>
      <trkpt lat="44.36355" lon="4.07235">
        <ele>500.03</ele>
        <time>2020-10-12T08:33:17.000Z</time>
      </trkpt>
      <trkpt lat="44.36367" lon="4.07254">
        <ele>508.23</ele>
        <time>2020-10-12T08:34:00.000Z</time>
      </trkpt>
      <trkpt lat="44.36383" lon="4.07265">
        <ele>508.7</ele>
        <time>2020-10-12T08:35:54.000Z</time>
      </trkpt>
      <trkpt lat="44.364" lon="4.07276">
        <ele>507.59</ele>
        <time>2020-10-12T08:39:27.000Z</time>
      </trkpt>
      <trkpt lat="44.36419" lon="4.0728">
        <ele>513.18</ele>
        <time>2020-10-12T08:39:38.000Z</time>
      </trkpt>
      <trkpt lat="44.36437" lon="4.07284">
        <ele>510.11</ele>
        <time>2020-10-12T08:39:59.000Z</time>
      </trkpt>
      <trkpt lat="44.36454" lon="4.07293">
        <ele>510.09</ele>
        <time>2020-10-12T08:40:16.000Z</time>
      </trkpt>
      <trkpt lat="44.36473" lon="4.07293">
        <ele>512.42</ele>
        <time>2020-10-12T08:40:35.000Z</time>
      </trkpt>
      <trkpt lat="44.36491" lon="4.07296">
        <ele>515.89</ele>
        <time>2020-10-12T08:40:58.000Z</time>
      </trkpt>
      <trkpt lat="44.36509" lon="4.07295">
        <ele>512.11</ele>
        <time>2020-10-12T08:41:13.000Z</time>
      </trkpt>
      <trkpt lat="44.36525" lon="4.07284">
        <ele>512.89</ele>
        <time>2020-10-12T08:41:29.000Z</time>
      </trkpt>
      <trkpt lat="44.36543" lon="4.07284">
        <ele>514.99</ele>
        <time>2020-10-12T08:41:50.000Z</time>
      </trkpt>
      <trkpt lat="44.36559" lon="4.07297">
        <ele>518.9</ele>
        <time>2020-10-12T08:42:08.000Z</time>
      </trkpt>
      <trkpt lat="44.36575" lon="4.0731">
        <ele>522.11</ele>
        <time>2020-10-12T08:42:28.000Z</time>
      </trkpt>
      <trkpt lat="44.36587" lon="4.07329">
        <ele>520.2</ele>
        <time>2020-10-12T08:42:47.000Z</time>
      </trkpt>
      <trkpt lat="44.36598" lon="4.0735">
        <ele>522.35</ele>
        <time>2020-10-12T08:43:05.000Z</time>
      </trkpt>
      <trkpt lat="44.3661" lon="4.07369">
        <ele>525.99</ele>
        <time>2020-10-12T08:43:29.000Z</time>
      </trkpt>
      <trkpt lat="44.36627" lon="4.07377">
        <ele>527.87</ele>
        <time>2020-10-12T08:43:46.000Z</time>
      </trkpt>
      <trkpt lat="44.36642" lon="4.07393">
        <ele>532.37</ele>
        <time>2020-10-12T08:44:07.000Z</time>
      </trkpt>
      <trkpt lat="44.3666" lon="4.07394">
        <ele>534.86</ele>
        <time>2020-10-12T08:44:30.000Z</time>
      </trkpt>
      <trkpt lat="44.36675" lon="4.0738">
        <ele>532.02</ele>
        <time>2020-10-12T08:44:57.000Z</time>
      </trkpt>
      <trkpt lat="44.36693" lon="4.07371">
        <ele>534.97</ele>
        <time>2020-10-12T08:46:42.000Z</time>
      </trkpt>
      <trkpt lat="44.36711" lon="4.07372">
        <ele>544.7</ele>
        <time>2020-10-12T08:47:27.000Z</time>
      </trkpt>
      <trkpt lat="44.36729" lon="4.07375">
        <ele>546.21</ele>
        <time>2020-10-12T08:48:11.000Z</time>
      </trkpt>
      <trkpt lat="44.36744" lon="4.07363">
        <ele>555.9</ele>
        <time>2020-10-12T08:49:10.000Z</time>
      </trkpt>
      <trkpt lat="44.36761" lon="4.07354">
        <ele>560.68</ele>
        <time>2020-10-12T08:49:56.000Z</time>
      </trkpt>
      <trkpt lat="44.36779" lon="4.07363">
        <ele>566.6</ele>
        <time>2020-10-12T08:50:13.000Z</time>
      </trkpt>
      <trkpt lat="44.36797" lon="4.07365">
        <ele>575.07</ele>
        <time>2020-10-12T08:50:33.000Z</time>
      </trkpt>
      <trkpt lat="44.36815" lon="4.07372">
        <ele>579.6</ele>
        <time>2020-10-12T08:50:55.000Z</time>
      </trkpt>
      <trkpt lat="44.36833" lon="4.07366">
        <ele>575.27</ele>
        <time>2020-10-12T08:51:21.000Z</time>
      </trkpt>
      <trkpt lat="44.36851" lon="4.07371">
        <ele>580.16</ele>
        <time>2020-10-12T08:51:57.000Z</time>
      </trkpt>
      <trkpt lat="44.36869" lon="4.07378">
        <ele>580.2</ele>
        <time>2020-10-12T08:52:08.000Z</time>
      </trkpt>
      <trkpt lat="44.36887" lon="4.07379">
        <ele>584.19</ele>
        <time>2020-10-12T08:52:30.000Z</time>
      </trkpt>
      <trkpt lat="44.36906" lon="4.07374">
        <ele>592.23</ele>
        <time>2020-10-12T08:53:00.000Z</time>
      </trkpt>
      <trkpt lat="44.36925" lon="4.07378">
        <ele>596.85</ele>
        <time>2020-10-12T08:53:13.000Z</time>
      </trkpt>
      <trkpt lat="44.36943" lon="4.07378">
        <ele>594.7</ele>
        <time>2020-10-12T08:53:26.000Z</time>
      </trkpt>
      <trkpt lat="44.36963" lon="4.07379">
        <ele>593.67</ele>
        <time>2020-10-12T08:53:45.000Z</time>
      </trkpt>
      <trkpt lat="44.3698" lon="4.0739">
        <ele>591.66</ele>
        <time>2020-10-12T08:54:05.000Z</time>
      </trkpt>
      <trkpt lat="44.36999" lon="4.07394">
        <ele>591.39</ele>
        <time>2020-10-12T08:54:23.000Z</time>
      </trkpt>
      <trkpt lat="44.37017" lon="4.07397">
        <ele>591.3</ele>
        <time>2020-10-12T08:54:45.000Z</time>
      </trkpt>
      <trkpt lat="44.37034" lon="4.07408">
        <ele>592.99</ele>
        <time>2020-10-12T08:55:02.000Z</time>
      </trkpt>
      <trkpt lat="44.37053" lon="4.074">
        <ele>598.42</ele>
        <time>2020-10-12T08:55:21.000Z</time>
      </trkpt>
      <trkpt lat="44.37071" lon="4.074">
        <ele>600.68</ele>
        <time>2020-10-12T08:55:40.000Z</time>
      </trkpt>
      <trkpt lat="44.37088" lon="4.0739">
        <ele>603.27</ele>
        <time>2020-10-12T08:56:02.000Z</time>
      </trkpt>
      <trkpt lat="44.37104" lon="4.07377">
        <ele>597.14</ele>
        <time>2020-10-12T08:56:23.000Z</time>
      </trkpt>
      <trkpt lat="44.3713" lon="4.07343">
        <ele>598.28</ele>
        <time>2020-10-12T08:56:55.000Z</time>
      </trkpt>
      <trkpt lat="44.37142" lon="4.07323">
        <ele>614.05</ele>
        <time>2020-10-12T08:57:24.000Z</time>
      </trkpt>
      <trkpt lat="44.37158" lon="4.07309">
        <ele>620.6</ele>
        <time>2020-10-12T08:58:03.000Z</time>
      </trkpt>
      <trkpt lat="44.37176" lon="4.07304">
        <ele>614.84</ele>
        <time>2020-10-12T08:58:20.000Z</time>
      </trkpt>
      <trkpt lat="44.37194" lon="4.073">
        <ele>619.18</ele>
        <time>2020-10-12T08:58:41.000Z</time>
      </trkpt>
      <trkpt lat="44.3721" lon="4.07312">
        <ele>627.67</ele>
        <time>2020-10-12T08:59:26.000Z</time>
      </trkpt>
      <trkpt lat="44.37216" lon="4.07337">
        <ele>629.07</ele>
        <time>2020-10-12T09:00:27.000Z</time>
      </trkpt>
      <trkpt lat="44.37228" lon="4.07357">
        <ele>645.66</ele>
        <time>2020-10-12T09:01:26.000Z</time>
      </trkpt>
      <trkpt lat="44.37245" lon="4.07366">
        <ele>652.57</ele>
        <time>2020-10-12T09:01:51.000Z</time>
      </trkpt>
      <trkpt lat="44.37263" lon="4.07363">
        <ele>651.81</ele>
        <time>2020-10-12T09:02:15.000Z</time>
      </trkpt>
      <trkpt lat="44.37281" lon="4.07369">
        <ele>660.27</ele>
        <time>2020-10-12T09:02:47.000Z</time>
      </trkpt>
      <trkpt lat="44.37298" lon="4.0738">
        <ele>659.27</ele>
        <time>2020-10-12T09:03:15.000Z</time>
      </trkpt>
      <trkpt lat="44.37294" lon="4.07404">
        <ele>667.41</ele>
        <time>2020-10-12T09:04:09.000Z</time>
      </trkpt>
      <trkpt lat="44.37278" lon="4.07418">
        <ele>670.04</ele>
        <time>2020-10-12T09:04:30.000Z</time>
      </trkpt>
      <trkpt lat="44.37296" lon="4.07412">
        <ele>673.28</ele>
        <time>2020-10-12T09:06:09.000Z</time>
      </trkpt>
      <trkpt lat="44.37315" lon="4.07414">
        <ele>670.41</ele>
        <time>2020-10-12T09:06:21.000Z</time>
      </trkpt>
      <trkpt lat="44.37332" lon="4.07404">
        <ele>665.71</ele>
        <time>2020-10-12T09:06:32.000Z</time>
      </trkpt>
      <trkpt lat="44.3735" lon="4.07411">
        <ele>667.74</ele>
        <time>2020-10-12T09:06:55.000Z</time>
      </trkpt>
      <trkpt lat="44.37367" lon="4.07401">
        <ele>671.99</ele>
        <time>2020-10-12T09:07:11.000Z</time>
      </trkpt>
      <trkpt lat="44.37386" lon="4.07399">
        <ele>672.58</ele>
        <time>2020-10-12T09:07:50.000Z</time>
      </trkpt>
      <trkpt lat="44.37405" lon="4.07404">
        <ele>668</ele>
        <time>2020-10-12T09:08:14.000Z</time>
      </trkpt>
      <trkpt lat="44.37424" lon="4.07411">
        <ele>673.68</ele>
        <time>2020-10-12T09:08:26.000Z</time>
      </trkpt>
      <trkpt lat="44.37443" lon="4.07411">
        <ele>676.21</ele>
        <time>2020-10-12T09:08:36.000Z</time>
      </trkpt>
      <trkpt lat="44.37461" lon="4.07402">
        <ele>681.2</ele>
        <time>2020-10-12T09:09:00.000Z</time>
      </trkpt>
      <trkpt lat="44.37479" lon="4.07407">
        <ele>682.77</ele>
        <time>2020-10-12T09:09:19.000Z</time>
      </trkpt>
      <trkpt lat="44.37497" lon="4.07412">
        <ele>683.93</ele>
        <time>2020-10-12T09:09:39.000Z</time>
      </trkpt>
      <trkpt lat="44.37513" lon="4.074">
        <ele>686.68</ele>
        <time>2020-10-12T09:10:17.000Z</time>
      </trkpt>
      <trkpt lat="44.37526" lon="4.07379">
        <ele>683.8</ele>
        <time>2020-10-12T09:10:30.000Z</time>
      </trkpt>
      <trkpt lat="44.37543" lon="4.07364">
        <ele>681.84</ele>
        <time>2020-10-12T09:10:42.000Z</time>
      </trkpt>
      <trkpt lat="44.37556" lon="4.07345">
        <ele>691.49</ele>
        <time>2020-10-12T09:10:58.000Z</time>
      </trkpt>
      <trkpt lat="44.37563" lon="4.07322">
        <ele>691.93</ele>
        <time>2020-10-12T09:11:19.000Z</time>
      </trkpt>
      <trkpt lat="44.37572" lon="4.07299">
        <ele>692.06</ele>
        <time>2020-10-12T09:11:37.000Z</time>
      </trkpt>
      <trkpt lat="44.37579" lon="4.07275">
        <ele>688.01</ele>
        <time>2020-10-12T09:11:54.000Z</time>
      </trkpt>
      <trkpt lat="44.37596" lon="4.07269">
        <ele>685.38</ele>
        <time>2020-10-12T09:12:12.000Z</time>
      </trkpt>
      <trkpt lat="44.37611" lon="4.07253">
        <ele>686.64</ele>
        <time>2020-10-12T09:12:25.000Z</time>
      </trkpt>
      <trkpt lat="44.37629" lon="4.07252">
        <ele>690.7</ele>
        <time>2020-10-12T09:12:40.000Z</time>
      </trkpt>
      <trkpt lat="44.37642" lon="4.07268">
        <ele>692.11</ele>
        <time>2020-10-12T09:12:59.000Z</time>
      </trkpt>
      <trkpt lat="44.37661" lon="4.0727">
        <ele>685.31</ele>
        <time>2020-10-12T09:13:17.000Z</time>
      </trkpt>
      <trkpt lat="44.37682" lon="4.0727">
        <ele>687.34</ele>
        <time>2020-10-12T09:13:42.000Z</time>
      </trkpt>
      <trkpt lat="44.37701" lon="4.0727">
        <ele>688.27</ele>
        <time>2020-10-12T09:13:50.000Z</time>
      </trkpt>
      <trkpt lat="44.37717" lon="4.07282">
        <ele>684.87</ele>
        <time>2020-10-12T09:14:20.000Z</time>
      </trkpt>
      <trkpt lat="44.37733" lon="4.07296">
        <ele>680.4</ele>
        <time>2020-10-12T09:14:55.000Z</time>
      </trkpt>
      <trkpt lat="44.37751" lon="4.07307">
        <ele>689.33</ele>
        <time>2020-10-12T09:15:22.000Z</time>
      </trkpt>
      <trkpt lat="44.37765" lon="4.07325">
        <ele>691.75</ele>
        <time>2020-10-12T09:15:38.000Z</time>
      </trkpt>
      <trkpt lat="44.37783" lon="4.0733">
        <ele>692.37</ele>
        <time>2020-10-12T09:15:56.000Z</time>
      </trkpt>
      <trkpt lat="44.378" lon="4.07323">
        <ele>694.88</ele>
        <time>2020-10-12T09:16:23.000Z</time>
      </trkpt>
      <trkpt lat="44.37816" lon="4.07309">
        <ele>697.54</ele>
        <time>2020-10-12T09:17:09.000Z</time>
      </trkpt>
      <trkpt lat="44.37833" lon="4.07302">
        <ele>707.98</ele>
        <time>2020-10-12T09:17:24.000Z</time>
      </trkpt>
      <trkpt lat="44.37851" lon="4.07295">
        <ele>710.17</ele>
        <time>2020-10-12T09:17:55.000Z</time>
      </trkpt>
      <trkpt lat="44.37871" lon="4.07286">
        <ele>714.23</ele>
        <time>2020-10-12T09:18:04.000Z</time>
      </trkpt>
      <trkpt lat="44.37891" lon="4.0728">
        <ele>713.06</ele>
        <time>2020-10-12T09:18:17.000Z</time>
      </trkpt>
      <trkpt lat="44.37909" lon="4.07279">
        <ele>709.89</ele>
        <time>2020-10-12T09:18:37.000Z</time>
      </trkpt>
      <trkpt lat="44.37926" lon="4.0729">
        <ele>708.57</ele>
        <time>2020-10-12T09:18:58.000Z</time>
      </trkpt>
      <trkpt lat="44.37945" lon="4.07295">
        <ele>699.02</ele>
        <time>2020-10-12T09:19:42.000Z</time>
      </trkpt>
      <trkpt lat="44.37961" lon="4.07308">
        <ele>697.56</ele>
        <time>2020-10-12T09:19:50.000Z</time>
      </trkpt>
      <trkpt lat="44.37977" lon="4.07322">
        <ele>697.45</ele>
        <time>2020-10-12T09:20:02.000Z</time>
      </trkpt>
      <trkpt lat="44.37993" lon="4.07332">
        <ele>696</ele>
        <time>2020-10-12T09:20:20.000Z</time>
      </trkpt>
      <trkpt lat="44.38009" lon="4.07344">
        <ele>697.68</ele>
        <time>2020-10-12T09:20:39.000Z</time>
      </trkpt>
      <trkpt lat="44.38027" lon="4.07352">
        <ele>697</ele>
        <time>2020-10-12T09:21:14.000Z</time>
      </trkpt>
      <trkpt lat="44.38044" lon="4.07347">
        <ele>697.29</ele>
        <time>2020-10-12T09:25:04.000Z</time>
      </trkpt>
      <trkpt lat="44.38062" lon="4.07337">
        <ele>693.9</ele>
        <time>2020-10-12T09:25:36.000Z</time>
      </trkpt>
      <trkpt lat="44.38078" lon="4.07326">
        <ele>689.06</ele>
        <time>2020-10-12T09:25:56.000Z</time>
      </trkpt>
      <trkpt lat="44.38091" lon="4.07309">
        <ele>686.92</ele>
        <time>2020-10-12T09:26:18.000Z</time>
      </trkpt>
      <trkpt lat="44.38108" lon="4.07295">
        <ele>693.03</ele>
        <time>2020-10-12T09:26:37.000Z</time>
      </trkpt>
      <trkpt lat="44.38126" lon="4.0729">
        <ele>690.86</ele>
        <time>2020-10-12T09:26:57.000Z</time>
      </trkpt>
      <trkpt lat="44.38144" lon="4.0729">
        <ele>694.31</ele>
        <time>2020-10-12T09:27:13.000Z</time>
      </trkpt>
      <trkpt lat="44.38162" lon="4.07283">
        <ele>695.97</ele>
        <time>2020-10-12T09:27:39.000Z</time>
      </trkpt>
      <trkpt lat="44.38181" lon="4.0728">
        <ele>698.63</ele>
        <time>2020-10-12T09:28:08.000Z</time>
      </trkpt>
      <trkpt lat="44.38198" lon="4.07269">
        <ele>693.08</ele>
        <time>2020-10-12T09:28:26.000Z</time>
      </trkpt>
      <trkpt lat="44.38213" lon="4.07255">
        <ele>693.03</ele>
        <time>2020-10-12T09:28:45.000Z</time>
      </trkpt>
      <trkpt lat="44.38228" lon="4.0724">
        <ele>698.59</ele>
        <time>2020-10-12T09:29:11.000Z</time>
      </trkpt>
      <trkpt lat="44.3824" lon="4.07221">
        <ele>696.96</ele>
        <time>2020-10-12T09:29:33.000Z</time>
      </trkpt>
      <trkpt lat="44.38256" lon="4.07208">
        <ele>693.14</ele>
        <time>2020-10-12T09:29:44.000Z</time>
      </trkpt>
      <trkpt lat="44.3827" lon="4.07191">
        <ele>694.62</ele>
        <time>2020-10-12T09:29:58.000Z</time>
      </trkpt>
      <trkpt lat="44.38273" lon="4.07165">
        <ele>695.38</ele>
        <time>2020-10-12T09:33:17.000Z</time>
      </trkpt>
      <trkpt lat="44.38273" lon="4.07139">
        <ele>690.87</ele>
        <time>2020-10-12T09:33:37.000Z</time>
      </trkpt>
      <trkpt lat="44.38291" lon="4.07135">
        <ele>683.24</ele>
        <time>2020-10-12T09:34:16.000Z</time>
      </trkpt>
      <trkpt lat="44.38294" lon="4.07108">
        <ele>676.12</ele>
        <time>2020-10-12T09:35:00.000Z</time>
      </trkpt>
      <trkpt lat="44.38311" lon="4.07102">
        <ele>666.97</ele>
        <time>2020-10-12T09:35:40.000Z</time>
      </trkpt>
      <trkpt lat="44.38303" lon="4.07079">
        <ele>668.66</ele>
        <time>2020-10-12T09:36:04.000Z</time>
      </trkpt>
      <trkpt lat="44.38294" lon="4.07057">
        <ele>665.75</ele>
        <time>2020-10-12T09:36:22.000Z</time>
      </trkpt>
      <trkpt lat="44.3828" lon="4.0704">
        <ele>661.78</ele>
        <time>2020-10-12T09:36:43.000Z</time>
      </trkpt>
      <trkpt lat="44.38266" lon="4.07022">
        <ele>657.26</ele>
        <time>2020-10-12T09:37:16.000Z</time>
      </trkpt>
      <trkpt lat="44.38258" lon="4.06998">
        <ele>660.55</ele>
        <time>2020-10-12T09:37:38.000Z</time>
      </trkpt>
      <trkpt lat="44.38249" lon="4.06976">
        <ele>656.93</ele>
        <time>2020-10-12T09:38:01.000Z</time>
      </trkpt>
      <trkpt lat="44.38254" lon="4.06951">
        <ele>652.05</ele>
        <time>2020-10-12T09:40:01.000Z</time>
      </trkpt>
      <trkpt lat="44.38255" lon="4.06924">
        <ele>648.88</ele>
        <time>2020-10-12T09:40:28.000Z</time>
      </trkpt>
      <trkpt lat="44.38257" lon="4.06898">
        <ele>648.96</ele>
        <time>2020-10-12T09:40:51.000Z</time>
      </trkpt>
      <trkpt lat="44.38265" lon="4.06875">
        <ele>636.89</ele>
        <time>2020-10-12T09:41:05.000Z</time>
      </trkpt>
      <trkpt lat="44.38269" lon="4.0685">
        <ele>637.27</ele>
        <time>2020-10-12T09:41:20.000Z</time>
      </trkpt>
      <trkpt lat="44.38277" lon="4.06826">
        <ele>631.35</ele>
        <time>2020-10-12T09:41:53.000Z</time>
      </trkpt>
      <trkpt lat="44.38291" lon="4.0681">
        <ele>634.66</ele>
        <time>2020-10-12T09:42:09.000Z</time>
      </trkpt>
      <trkpt lat="44.38309" lon="4.06802">
        <ele>624.38</ele>
        <time>2020-10-12T09:42:56.000Z</time>
      </trkpt>
      <trkpt lat="44.38314" lon="4.06778">
        <ele>618.87</ele>
        <time>2020-10-12T09:43:23.000Z</time>
      </trkpt>
      <trkpt lat="44.38329" lon="4.06763">
        <ele>614.97</ele>
        <time>2020-10-12T09:43:57.000Z</time>
      </trkpt>
      <trkpt lat="44.38346" lon="4.06753">
        <ele>613.08</ele>
        <time>2020-10-12T09:44:22.000Z</time>
      </trkpt>
      <trkpt lat="44.38361" lon="4.06736">
        <ele>607.99</ele>
        <time>2020-10-12T09:44:38.000Z</time>
      </trkpt>
      <trkpt lat="44.38378" lon="4.06725">
        <ele>605.26</ele>
        <time>2020-10-12T09:44:54.000Z</time>
      </trkpt>
      <trkpt lat="44.38393" lon="4.06709">
        <ele>605.57</ele>
        <time>2020-10-12T09:45:08.000Z</time>
      </trkpt>
      <trkpt lat="44.38398" lon="4.06683">
        <ele>609.93</ele>
        <time>2020-10-12T09:45:26.000Z</time>
      </trkpt>
      <trkpt lat="44.38398" lon="4.06658">
        <ele>611.34</ele>
        <time>2020-10-12T09:45:42.000Z</time>
      </trkpt>
      <trkpt lat="44.38402" lon="4.06633">
        <ele>611.85</ele>
        <time>2020-10-12T09:46:02.000Z</time>
      </trkpt>
      <trkpt lat="44.38402" lon="4.06606">
        <ele>608.94</ele>
        <time>2020-10-12T09:46:18.000Z</time>
      </trkpt>
      <trkpt lat="44.38399" lon="4.0658">
        <ele>604.07</ele>
        <time>2020-10-12T09:46:35.000Z</time>
      </trkpt>
      <trkpt lat="44.38401" lon="4.06555">
        <ele>602.11</ele>
        <time>2020-10-12T09:47:11.000Z</time>
      </trkpt>
      <trkpt lat="44.38402" lon="4.06528">
        <ele>604.93</ele>
        <time>2020-10-12T09:48:42.000Z</time>
      </trkpt>
      <trkpt lat="44.38396" lon="4.06503">
        <ele>599.04</ele>
        <time>2020-10-12T09:49:02.000Z</time>
      </trkpt>
      <trkpt lat="44.38388" lon="4.06481">
        <ele>598.03</ele>
        <time>2020-10-12T09:49:18.000Z</time>
      </trkpt>
      <trkpt lat="44.38375" lon="4.06463">
        <ele>597.96</ele>
        <time>2020-10-12T09:49:38.000Z</time>
      </trkpt>
      <trkpt lat="44.38384" lon="4.06441">
        <ele>597.77</ele>
        <time>2020-10-12T09:50:02.000Z</time>
      </trkpt>
      <trkpt lat="44.38398" lon="4.06423">
        <ele>598.05</ele>
        <time>2020-10-12T09:50:24.000Z</time>
      </trkpt>
      <trkpt lat="44.38416" lon="4.06416">
        <ele>597.51</ele>
        <time>2020-10-12T09:50:55.000Z</time>
      </trkpt>
      <trkpt lat="44.38434" lon="4.06415">
        <ele>597.45</ele>
        <time>2020-10-12T09:51:06.000Z</time>
      </trkpt>
      <trkpt lat="44.38452" lon="4.06416">
        <ele>601.7</ele>
        <time>2020-10-12T09:51:27.000Z</time>
      </trkpt>
      <trkpt lat="44.3847" lon="4.0641">
        <ele>596.17</ele>
        <time>2020-10-12T09:53:39.000Z</time>
      </trkpt>
      <trkpt lat="44.38488" lon="4.06404">
        <ele>591.14</ele>
        <time>2020-10-12T09:53:52.000Z</time>
      </trkpt>
      <trkpt lat="44.38507" lon="4.06405">
        <ele>591.84</ele>
        <time>2020-10-12T09:54:06.000Z</time>
      </trkpt>
      <trkpt lat="44.38525" lon="4.06397">
        <ele>595.56</ele>
        <time>2020-10-12T09:54:22.000Z</time>
      </trkpt>
      <trkpt lat="44.38544" lon="4.06394">
        <ele>593.01</ele>
        <time>2020-10-12T09:54:41.000Z</time>
      </trkpt>
      <trkpt lat="44.38561" lon="4.06402">
        <ele>592.26</ele>
        <time>2020-10-12T09:54:58.000Z</time>
      </trkpt>
      <trkpt lat="44.38579" lon="4.06399">
        <ele>594.01</ele>
        <time>2020-10-12T09:55:44.000Z</time>
      </trkpt>
      <trkpt lat="44.38597" lon="4.06399">
        <ele>596.62</ele>
        <time>2020-10-12T09:55:58.000Z</time>
      </trkpt>
      <trkpt lat="44.386" lon="4.06425">
        <ele>586.37</ele>
        <time>2020-10-12T09:56:43.000Z</time>
      </trkpt>
      <trkpt lat="44.38602" lon="4.06451">
        <ele>588.65</ele>
        <time>2020-10-12T09:57:02.000Z</time>
      </trkpt>
      <trkpt lat="44.3862" lon="4.0644">
        <ele>586.65</ele>
        <time>2020-10-12T09:57:36.000Z</time>
      </trkpt>
      <trkpt lat="44.38633" lon="4.06423">
        <ele>586.79</ele>
        <time>2020-10-12T09:57:52.000Z</time>
      </trkpt>
      <trkpt lat="44.3864" lon="4.06399">
        <ele>583.95</ele>
        <time>2020-10-12T09:58:08.000Z</time>
      </trkpt>
      <trkpt lat="44.38648" lon="4.06376">
        <ele>579.96</ele>
        <time>2020-10-12T09:58:22.000Z</time>
      </trkpt>
      <trkpt lat="44.38657" lon="4.06354">
        <ele>577.02</ele>
        <time>2020-10-12T09:58:35.000Z</time>
      </trkpt>
      <trkpt lat="44.38666" lon="4.06331">
        <ele>576.96</ele>
        <time>2020-10-12T09:58:52.000Z</time>
      </trkpt>
      <trkpt lat="44.38678" lon="4.06311">
        <ele>572.86</ele>
        <time>2020-10-12T09:59:07.000Z</time>
      </trkpt>
      <trkpt lat="44.38686" lon="4.06289">
        <ele>575.33</ele>
        <time>2020-10-12T09:59:26.000Z</time>
      </trkpt>
      <trkpt lat="44.38681" lon="4.06315">
        <ele>580.33</ele>
        <time>2020-10-12T10:01:24.000Z</time>
      </trkpt>
      <trkpt lat="44.3867" lon="4.06336">
        <ele>585.95</ele>
        <time>2020-10-12T10:01:41.000Z</time>
      </trkpt>
      <trkpt lat="44.38661" lon="4.06358">
        <ele>583.86</ele>
        <time>2020-10-12T10:02:04.000Z</time>
      </trkpt>
      <trkpt lat="44.38649" lon="4.06382">
        <ele>581.04</ele>
        <time>2020-10-12T10:02:26.000Z</time>
      </trkpt>
      <trkpt lat="44.38638" lon="4.06403">
        <ele>581.94</ele>
        <time>2020-10-12T10:02:46.000Z</time>
      </trkpt>
      <trkpt lat="44.38628" lon="4.06425">
        <ele>582.95</ele>
        <time>2020-10-12T10:03:09.000Z</time>
      </trkpt>
      <trkpt lat="44.38618" lon="4.06446">
        <ele>584.95</ele>
        <time>2020-10-12T10:03:28.000Z</time>
      </trkpt>
      <trkpt lat="44.38628" lon="4.06423">
        <ele>584.02</ele>
        <time>2020-10-12T10:04:29.000Z</time>
      </trkpt>
      <trkpt lat="44.38638" lon="4.06402">
        <ele>582.04</ele>
        <time>2020-10-12T10:04:49.000Z</time>
      </trkpt>
      <trkpt lat="44.38643" lon="4.06376">
        <ele>582.77</ele>
        <time>2020-10-12T10:05:05.000Z</time>
      </trkpt>
      <trkpt lat="44.38656" lon="4.06357">
        <ele>577.95</ele>
        <time>2020-10-12T10:05:22.000Z</time>
      </trkpt>
      <trkpt lat="44.38662" lon="4.06333">
        <ele>576.89</ele>
        <time>2020-10-12T10:05:38.000Z</time>
      </trkpt>
      <trkpt lat="44.38674" lon="4.06314">
        <ele>582.84</ele>
        <time>2020-10-12T10:05:55.000Z</time>
      </trkpt>
      <trkpt lat="44.38677" lon="4.06288">
        <ele>574.86</ele>
        <time>2020-10-12T10:06:12.000Z</time>
      </trkpt>
      <trkpt lat="44.38678" lon="4.06262">
        <ele>586.64</ele>
        <time>2020-10-12T10:07:31.000Z</time>
      </trkpt>
      <trkpt lat="44.38663" lon="4.06247">
        <ele>594.65</ele>
        <time>2020-10-12T10:08:31.000Z</time>
      </trkpt>
      <trkpt lat="44.38647" lon="4.06232">
        <ele>601.87</ele>
        <time>2020-10-12T10:11:30.000Z</time>
      </trkpt>
      <trkpt lat="44.38634" lon="4.06214">
        <ele>606.65</ele>
        <time>2020-10-12T10:12:38.000Z</time>
      </trkpt>
      <trkpt lat="44.38617" lon="4.062">
        <ele>620.86</ele>
        <time>2020-10-12T10:13:40.000Z</time>
      </trkpt>
      <trkpt lat="44.38599" lon="4.06199">
        <ele>629.18</ele>
        <time>2020-10-12T10:14:50.000Z</time>
      </trkpt>
      <trkpt lat="44.38582" lon="4.06206">
        <ele>631.65</ele>
        <time>2020-10-12T10:15:08.000Z</time>
      </trkpt>
      <trkpt lat="44.38575" lon="4.06181">
        <ele>639.56</ele>
        <time>2020-10-12T10:15:35.000Z</time>
      </trkpt>
      <trkpt lat="44.38569" lon="4.06156">
        <ele>650.1</ele>
        <time>2020-10-12T10:16:33.000Z</time>
      </trkpt>
      <trkpt lat="44.38575" lon="4.06131">
        <ele>654.88</ele>
        <time>2020-10-12T10:16:47.000Z</time>
      </trkpt>
      <trkpt lat="44.3858" lon="4.06107">
        <ele>663.66</ele>
        <time>2020-10-12T10:17:11.000Z</time>
      </trkpt>
      <trkpt lat="44.38581" lon="4.0608">
        <ele>667</ele>
        <time>2020-10-12T10:17:54.000Z</time>
      </trkpt>
      <trkpt lat="44.38594" lon="4.06063">
        <ele>670</ele>
        <time>2020-10-12T10:18:29.000Z</time>
      </trkpt>
      <trkpt lat="44.38603" lon="4.0604">
        <ele>669.98</ele>
        <time>2020-10-12T10:18:48.000Z</time>
      </trkpt>
      <trkpt lat="44.38617" lon="4.06024">
        <ele>679.26</ele>
        <time>2020-10-12T10:19:17.000Z</time>
      </trkpt>
      <trkpt lat="44.38631" lon="4.06007">
        <ele>671.91</ele>
        <time>2020-10-12T10:20:21.000Z</time>
      </trkpt>
      <trkpt lat="44.3864" lon="4.05984">
        <ele>686.96</ele>
        <time>2020-10-12T10:21:24.000Z</time>
      </trkpt>
      <trkpt lat="44.38636" lon="4.05959">
        <ele>696.46</ele>
        <time>2020-10-12T10:23:30.000Z</time>
      </trkpt>
      <trkpt lat="44.38618" lon="4.05954">
        <ele>703.87</ele>
        <time>2020-10-12T10:24:27.000Z</time>
      </trkpt>
      <trkpt lat="44.38609" lon="4.05932">
        <ele>708.85</ele>
        <time>2020-10-12T10:24:51.000Z</time>
      </trkpt>
      <trkpt lat="44.38609" lon="4.05907">
        <ele>715.22</ele>
        <time>2020-10-12T10:26:40.000Z</time>
      </trkpt>
      <trkpt lat="44.3861" lon="4.05881">
        <ele>718.87</ele>
        <time>2020-10-12T10:27:42.000Z</time>
      </trkpt>
      <trkpt lat="44.38611" lon="4.05856">
        <ele>731.71</ele>
        <time>2020-10-12T10:28:37.000Z</time>
      </trkpt>
      <trkpt lat="44.38615" lon="4.05831">
        <ele>734.94</ele>
        <time>2020-10-12T10:29:24.000Z</time>
      </trkpt>
      <trkpt lat="44.38602" lon="4.05811">
        <ele>737.36</ele>
        <time>2020-10-12T10:30:08.000Z</time>
      </trkpt>
      <trkpt lat="44.38585" lon="4.05803">
        <ele>747.07</ele>
        <time>2020-10-12T10:30:48.000Z</time>
      </trkpt>
      <trkpt lat="44.38568" lon="4.05812">
        <ele>751.43</ele>
        <time>2020-10-12T10:31:03.000Z</time>
      </trkpt>
      <trkpt lat="44.3855" lon="4.05821">
        <ele>756.18</ele>
        <time>2020-10-12T10:31:30.000Z</time>
      </trkpt>
      <trkpt lat="44.38536" lon="4.05838">
        <ele>752.66</ele>
        <time>2020-10-12T10:31:53.000Z</time>
      </trkpt>
      <trkpt lat="44.38518" lon="4.05837">
        <ele>759.89</ele>
        <time>2020-10-12T10:33:08.000Z</time>
      </trkpt>
      <trkpt lat="44.38499" lon="4.05836">
        <ele>769.87</ele>
        <time>2020-10-12T10:34:01.000Z</time>
      </trkpt>
      <trkpt lat="44.38481" lon="4.05829">
        <ele>770.52</ele>
        <time>2020-10-12T10:34:39.000Z</time>
      </trkpt>
      <trkpt lat="44.38466" lon="4.05815">
        <ele>770.03</ele>
        <time>2020-10-12T10:34:59.000Z</time>
      </trkpt>
      <trkpt lat="44.38449" lon="4.05821">
        <ele>777.65</ele>
        <time>2020-10-12T10:35:23.000Z</time>
      </trkpt>
      <trkpt lat="44.38414" lon="4.05837">
        <ele>784.16</ele>
        <time>2020-10-12T10:36:24.000Z</time>
      </trkpt>
      <trkpt lat="44.38396" lon="4.05844">
        <ele>789.41</ele>
        <time>2020-10-12T10:36:51.000Z</time>
      </trkpt>
      <trkpt lat="44.38377" lon="4.0585">
        <ele>793.25</ele>
        <time>2020-10-12T10:37:34.000Z</time>
      </trkpt>
      <trkpt lat="44.38359" lon="4.05847">
        <ele>791.94</ele>
        <time>2020-10-12T10:37:51.000Z</time>
      </trkpt>
      <trkpt lat="44.38341" lon="4.05838">
        <ele>795.86</ele>
        <time>2020-10-12T10:38:08.000Z</time>
      </trkpt>
      <trkpt lat="44.38323" lon="4.05837">
        <ele>796.55</ele>
        <time>2020-10-12T10:38:29.000Z</time>
      </trkpt>
      <trkpt lat="44.38304" lon="4.05836">
        <ele>795.36</ele>
        <time>2020-10-12T10:38:53.000Z</time>
      </trkpt>
      <trkpt lat="44.38286" lon="4.05832">
        <ele>798.77</ele>
        <time>2020-10-12T10:39:14.000Z</time>
      </trkpt>
      <trkpt lat="44.38269" lon="4.05821">
        <ele>805</ele>
        <time>2020-10-12T10:39:35.000Z</time>
      </trkpt>
      <trkpt lat="44.38252" lon="4.05813">
        <ele>805.92</ele>
        <time>2020-10-12T10:39:56.000Z</time>
      </trkpt>
      <trkpt lat="44.38233" lon="4.05806">
        <ele>798.56</ele>
        <time>2020-10-12T10:40:22.000Z</time>
      </trkpt>
      <trkpt lat="44.38214" lon="4.05801">
        <ele>807.39</ele>
        <time>2020-10-12T10:40:46.000Z</time>
      </trkpt>
      <trkpt lat="44.38196" lon="4.05799">
        <ele>815.67</ele>
        <time>2020-10-12T10:41:27.000Z</time>
      </trkpt>
      <trkpt lat="44.38178" lon="4.0579">
        <ele>810.9</ele>
        <time>2020-10-12T10:42:13.000Z</time>
      </trkpt>
      <trkpt lat="44.38159" lon="4.05784">
        <ele>815.4</ele>
        <time>2020-10-12T10:42:44.000Z</time>
      </trkpt>
      <trkpt lat="44.38141" lon="4.05778">
        <ele>817.82</ele>
        <time>2020-10-12T10:42:55.000Z</time>
      </trkpt>
      <trkpt lat="44.38123" lon="4.05771">
        <ele>822.53</ele>
        <time>2020-10-12T10:43:22.000Z</time>
      </trkpt>
      <trkpt lat="44.38108" lon="4.05755">
        <ele>829.36</ele>
        <time>2020-10-12T10:43:55.000Z</time>
      </trkpt>
      <trkpt lat="44.3809" lon="4.05752">
        <ele>834.33</ele>
        <time>2020-10-12T10:44:28.000Z</time>
      </trkpt>
      <trkpt lat="44.38072" lon="4.05744">
        <ele>836.94</ele>
        <time>2020-10-12T10:45:16.000Z</time>
      </trkpt>
      <trkpt lat="44.38057" lon="4.05728">
        <ele>838.27</ele>
        <time>2020-10-12T10:45:33.000Z</time>
      </trkpt>
      <trkpt lat="44.38041" lon="4.05716">
        <ele>851.84</ele>
        <time>2020-10-12T10:46:13.000Z</time>
      </trkpt>
      <trkpt lat="44.38023" lon="4.05706">
        <ele>850.87</ele>
        <time>2020-10-12T10:46:46.000Z</time>
      </trkpt>
      <trkpt lat="44.38005" lon="4.057">
        <ele>862.93</ele>
        <time>2020-10-12T10:47:34.000Z</time>
      </trkpt>
      <trkpt lat="44.37987" lon="4.05704">
        <ele>868.69</ele>
        <time>2020-10-12T10:48:47.000Z</time>
      </trkpt>
      <trkpt lat="44.37968" lon="4.05707">
        <ele>877.22</ele>
        <time>2020-10-12T10:49:29.000Z</time>
      </trkpt>
      <trkpt lat="44.3795" lon="4.05708">
        <ele>883.57</ele>
        <time>2020-10-12T10:50:12.000Z</time>
      </trkpt>
      <trkpt lat="44.37934" lon="4.05721">
        <ele>882.34</ele>
        <time>2020-10-12T10:50:33.000Z</time>
      </trkpt>
      <trkpt lat="44.37916" lon="4.05727">
        <ele>887.66</ele>
        <time>2020-10-12T10:50:54.000Z</time>
      </trkpt>
      <trkpt lat="44.37897" lon="4.05728">
        <ele>892.69</ele>
        <time>2020-10-12T10:52:25.000Z</time>
      </trkpt>
      <trkpt lat="44.37879" lon="4.05719">
        <ele>891.97</ele>
        <time>2020-10-12T10:52:47.000Z</time>
      </trkpt>
      <trkpt lat="44.37879" lon="4.05692">
        <ele>891.47</ele>
        <time>2020-10-12T10:53:28.000Z</time>
      </trkpt>
      <trkpt lat="44.3789" lon="4.05712">
        <ele>891.97</ele>
        <time>2020-10-12T11:47:35.000Z</time>
      </trkpt>
      <trkpt lat="44.37903" lon="4.05695">
        <ele>893.93</ele>
        <time>2020-10-12T11:47:54.000Z</time>
      </trkpt>
      <trkpt lat="44.37903" lon="4.05668">
        <ele>894.63</ele>
        <time>2020-10-12T11:48:09.000Z</time>
      </trkpt>
      <trkpt lat="44.37901" lon="4.05642">
        <ele>901.77</ele>
        <time>2020-10-12T11:48:35.000Z</time>
      </trkpt>
      <trkpt lat="44.37897" lon="4.05617">
        <ele>906.05</ele>
        <time>2020-10-12T11:48:56.000Z</time>
      </trkpt>
      <trkpt lat="44.379" lon="4.05592">
        <ele>905.96</ele>
        <time>2020-10-12T11:49:20.000Z</time>
      </trkpt>
      <trkpt lat="44.3789" lon="4.05569">
        <ele>908.65</ele>
        <time>2020-10-12T11:49:39.000Z</time>
      </trkpt>
      <trkpt lat="44.37891" lon="4.05544">
        <ele>910.16</ele>
        <time>2020-10-12T11:49:57.000Z</time>
      </trkpt>
      <trkpt lat="44.37889" lon="4.05519">
        <ele>912.23</ele>
        <time>2020-10-12T11:50:16.000Z</time>
      </trkpt>
      <trkpt lat="44.37883" lon="4.05493">
        <ele>911.01</ele>
        <time>2020-10-12T11:50:33.000Z</time>
      </trkpt>
      <trkpt lat="44.37879" lon="4.05469">
        <ele>908.08</ele>
        <time>2020-10-12T11:50:50.000Z</time>
      </trkpt>
      <trkpt lat="44.37875" lon="4.05443">
        <ele>908.05</ele>
        <time>2020-10-12T11:51:06.000Z</time>
      </trkpt>
      <trkpt lat="44.37872" lon="4.05418">
        <ele>913.54</ele>
        <time>2020-10-12T11:51:24.000Z</time>
      </trkpt>
      <trkpt lat="44.37871" lon="4.05392">
        <ele>918.87</ele>
        <time>2020-10-12T11:51:41.000Z</time>
      </trkpt>
      <trkpt lat="44.37872" lon="4.05366">
        <ele>921.16</ele>
        <time>2020-10-12T11:51:59.000Z</time>
      </trkpt>
      <trkpt lat="44.37879" lon="4.05342">
        <ele>922.75</ele>
        <time>2020-10-12T11:52:15.000Z</time>
      </trkpt>
      <trkpt lat="44.37889" lon="4.05319">
        <ele>921.57</ele>
        <time>2020-10-12T11:52:30.000Z</time>
      </trkpt>
      <trkpt lat="44.37899" lon="4.05296">
        <ele>919.66</ele>
        <time>2020-10-12T11:52:48.000Z</time>
      </trkpt>
      <trkpt lat="44.37909" lon="4.05273">
        <ele>915.48</ele>
        <time>2020-10-12T11:53:02.000Z</time>
      </trkpt>
      <trkpt lat="44.37896" lon="4.05254">
        <ele>911.96</ele>
        <time>2020-10-12T11:53:37.000Z</time>
      </trkpt>
      <trkpt lat="44.37883" lon="4.05236">
        <ele>910.02</ele>
        <time>2020-10-12T11:53:54.000Z</time>
      </trkpt>
      <trkpt lat="44.37866" lon="4.05221">
        <ele>908.25</ele>
        <time>2020-10-12T11:54:07.000Z</time>
      </trkpt>
      <trkpt lat="44.37853" lon="4.05204">
        <ele>904.26</ele>
        <time>2020-10-12T11:54:22.000Z</time>
      </trkpt>
      <trkpt lat="44.37835" lon="4.05193">
        <ele>897.08</ele>
        <time>2020-10-12T11:54:42.000Z</time>
      </trkpt>
      <trkpt lat="44.37818" lon="4.05183">
        <ele>898.66</ele>
        <time>2020-10-12T11:55:00.000Z</time>
      </trkpt>
      <trkpt lat="44.37799" lon="4.05184">
        <ele>900.24</ele>
        <time>2020-10-12T11:55:16.000Z</time>
      </trkpt>
      <trkpt lat="44.37782" lon="4.05179">
        <ele>897.55</ele>
        <time>2020-10-12T11:55:34.000Z</time>
      </trkpt>
      <trkpt lat="44.37764" lon="4.05171">
        <ele>899.87</ele>
        <time>2020-10-12T11:55:51.000Z</time>
      </trkpt>
      <trkpt lat="44.37745" lon="4.05165">
        <ele>896.96</ele>
        <time>2020-10-12T11:56:03.000Z</time>
      </trkpt>
      <trkpt lat="44.37727" lon="4.05166">
        <ele>895.22</ele>
        <time>2020-10-12T11:56:14.000Z</time>
      </trkpt>
      <trkpt lat="44.37708" lon="4.05163">
        <ele>892.96</ele>
        <time>2020-10-12T11:56:36.000Z</time>
      </trkpt>
      <trkpt lat="44.37691" lon="4.05151">
        <ele>882.12</ele>
        <time>2020-10-12T11:57:03.000Z</time>
      </trkpt>
      <trkpt lat="44.37677" lon="4.05134">
        <ele>886.84</ele>
        <time>2020-10-12T11:57:21.000Z</time>
      </trkpt>
      <trkpt lat="44.37659" lon="4.05125">
        <ele>886.05</ele>
        <time>2020-10-12T11:57:36.000Z</time>
      </trkpt>
      <trkpt lat="44.37664" lon="4.051">
        <ele>880.28</ele>
        <time>2020-10-12T11:57:57.000Z</time>
      </trkpt>
      <trkpt lat="44.37658" lon="4.05075">
        <ele>880.26</ele>
        <time>2020-10-12T11:58:16.000Z</time>
      </trkpt>
      <trkpt lat="44.37647" lon="4.05055">
        <ele>881.66</ele>
        <time>2020-10-12T11:58:34.000Z</time>
      </trkpt>
      <trkpt lat="44.37634" lon="4.05037">
        <ele>877.01</ele>
        <time>2020-10-12T11:58:54.000Z</time>
      </trkpt>
      <trkpt lat="44.37617" lon="4.05026">
        <ele>870.96</ele>
        <time>2020-10-12T11:59:16.000Z</time>
      </trkpt>
      <trkpt lat="44.376" lon="4.05015">
        <ele>867.04</ele>
        <time>2020-10-12T11:59:33.000Z</time>
      </trkpt>
      <trkpt lat="44.37586" lon="4.05">
        <ele>862.74</ele>
        <time>2020-10-12T12:00:00.000Z</time>
      </trkpt>
      <trkpt lat="44.37568" lon="4.04995">
        <ele>860.96</ele>
        <time>2020-10-12T12:00:23.000Z</time>
      </trkpt>
      <trkpt lat="44.3755" lon="4.04995">
        <ele>862.66</ele>
        <time>2020-10-12T12:00:47.000Z</time>
      </trkpt>
      <trkpt lat="44.37532" lon="4.0499">
        <ele>853.76</ele>
        <time>2020-10-12T12:01:12.000Z</time>
      </trkpt>
      <trkpt lat="44.37514" lon="4.04993">
        <ele>847.53</ele>
        <time>2020-10-12T12:01:33.000Z</time>
      </trkpt>
      <trkpt lat="44.37496" lon="4.04982">
        <ele>845.96</ele>
        <time>2020-10-12T12:01:51.000Z</time>
      </trkpt>
      <trkpt lat="44.37478" lon="4.04974">
        <ele>839.69</ele>
        <time>2020-10-12T12:02:17.000Z</time>
      </trkpt>
      <trkpt lat="44.37461" lon="4.04967">
        <ele>831.23</ele>
        <time>2020-10-12T12:02:44.000Z</time>
      </trkpt>
      <trkpt lat="44.37441" lon="4.0497">
        <ele>830.83</ele>
        <time>2020-10-12T12:03:04.000Z</time>
      </trkpt>
      <trkpt lat="44.37423" lon="4.04969">
        <ele>831.21</ele>
        <time>2020-10-12T12:03:17.000Z</time>
      </trkpt>
      <trkpt lat="44.37405" lon="4.04968">
        <ele>824.95</ele>
        <time>2020-10-12T12:03:42.000Z</time>
      </trkpt>
      <trkpt lat="44.37386" lon="4.04967">
        <ele>825.03</ele>
        <time>2020-10-12T12:03:58.000Z</time>
      </trkpt>
      <trkpt lat="44.37368" lon="4.0497">
        <ele>824.49</ele>
        <time>2020-10-12T12:04:17.000Z</time>
      </trkpt>
      <trkpt lat="44.3735" lon="4.04963">
        <ele>826.26</ele>
        <time>2020-10-12T12:04:46.000Z</time>
      </trkpt>
      <trkpt lat="44.37332" lon="4.04957">
        <ele>822.93</ele>
        <time>2020-10-12T12:05:08.000Z</time>
      </trkpt>
      <trkpt lat="44.37314" lon="4.04954">
        <ele>820.15</ele>
        <time>2020-10-12T12:05:35.000Z</time>
      </trkpt>
      <trkpt lat="44.37297" lon="4.04966">
        <ele>819.81</ele>
        <time>2020-10-12T12:05:54.000Z</time>
      </trkpt>
      <trkpt lat="44.37298" lon="4.04992">
        <ele>813.35</ele>
        <time>2020-10-12T12:06:41.000Z</time>
      </trkpt>
      <trkpt lat="44.37306" lon="4.05016">
        <ele>808.26</ele>
        <time>2020-10-12T12:07:11.000Z</time>
      </trkpt>
      <trkpt lat="44.37307" lon="4.05042">
        <ele>794.93</ele>
        <time>2020-10-12T12:08:48.000Z</time>
      </trkpt>
      <trkpt lat="44.37306" lon="4.05068">
        <ele>785.61</ele>
        <time>2020-10-12T12:09:28.000Z</time>
      </trkpt>
      <trkpt lat="44.37288" lon="4.0507">
        <ele>777.64</ele>
        <time>2020-10-12T12:09:51.000Z</time>
      </trkpt>
      <trkpt lat="44.3727" lon="4.05067">
        <ele>772.96</ele>
        <time>2020-10-12T12:10:16.000Z</time>
      </trkpt>
      <trkpt lat="44.37251" lon="4.05071">
        <ele>773.99</ele>
        <time>2020-10-12T12:10:32.000Z</time>
      </trkpt>
      <trkpt lat="44.37233" lon="4.0507">
        <ele>769.02</ele>
        <time>2020-10-12T12:10:54.000Z</time>
      </trkpt>
      <trkpt lat="44.37215" lon="4.05066">
        <ele>763.41</ele>
        <time>2020-10-12T12:11:26.000Z</time>
      </trkpt>
      <trkpt lat="44.37198" lon="4.05073">
        <ele>759.88</ele>
        <time>2020-10-12T12:11:53.000Z</time>
      </trkpt>
      <trkpt lat="44.37179" lon="4.05074">
        <ele>759.76</ele>
        <time>2020-10-12T12:12:24.000Z</time>
      </trkpt>
      <trkpt lat="44.37161" lon="4.0508">
        <ele>757.97</ele>
        <time>2020-10-12T12:12:35.000Z</time>
      </trkpt>
      <trkpt lat="44.37143" lon="4.05083">
        <ele>751.8</ele>
        <time>2020-10-12T12:13:05.000Z</time>
      </trkpt>
      <trkpt lat="44.37125" lon="4.0508">
        <ele>743.88</ele>
        <time>2020-10-12T12:13:22.000Z</time>
      </trkpt>
      <trkpt lat="44.37108" lon="4.05091">
        <ele>743.79</ele>
        <time>2020-10-12T12:13:41.000Z</time>
      </trkpt>
      <trkpt lat="44.3709" lon="4.05086">
        <ele>743.45</ele>
        <time>2020-10-12T12:14:00.000Z</time>
      </trkpt>
      <trkpt lat="44.37076" lon="4.05069">
        <ele>734.41</ele>
        <time>2020-10-12T12:14:27.000Z</time>
      </trkpt>
      <trkpt lat="44.37061" lon="4.05055">
        <ele>731.99</ele>
        <time>2020-10-12T12:14:43.000Z</time>
      </trkpt>
      <trkpt lat="44.37045" lon="4.05043">
        <ele>728.95</ele>
        <time>2020-10-12T12:15:04.000Z</time>
      </trkpt>
      <trkpt lat="44.37026" lon="4.05043">
        <ele>716.95</ele>
        <time>2020-10-12T12:19:24.000Z</time>
      </trkpt>
      <trkpt lat="44.37008" lon="4.05049">
        <ele>719.05</ele>
        <time>2020-10-12T12:19:50.000Z</time>
      </trkpt>
      <trkpt lat="44.3699" lon="4.05043">
        <ele>713.08</ele>
        <time>2020-10-12T12:20:21.000Z</time>
      </trkpt>
      <trkpt lat="44.36972" lon="4.05046">
        <ele>711.57</ele>
        <time>2020-10-12T12:20:33.000Z</time>
      </trkpt>
      <trkpt lat="44.36953" lon="4.05044">
        <ele>703.27</ele>
        <time>2020-10-12T12:21:02.000Z</time>
      </trkpt>
      <trkpt lat="44.36936" lon="4.05034">
        <ele>708.87</ele>
        <time>2020-10-12T12:21:22.000Z</time>
      </trkpt>
      <trkpt lat="44.36917" lon="4.05031">
        <ele>706.97</ele>
        <time>2020-10-12T12:21:57.000Z</time>
      </trkpt>
      <trkpt lat="44.369" lon="4.05038">
        <ele>700.95</ele>
        <time>2020-10-12T12:22:26.000Z</time>
      </trkpt>
      <trkpt lat="44.36882" lon="4.05042">
        <ele>698.97</ele>
        <time>2020-10-12T12:22:47.000Z</time>
      </trkpt>
      <trkpt lat="44.36864" lon="4.0504">
        <ele>693.24</ele>
        <time>2020-10-12T12:23:08.000Z</time>
      </trkpt>
      <trkpt lat="44.36845" lon="4.05037">
        <ele>685.27</ele>
        <time>2020-10-12T12:23:35.000Z</time>
      </trkpt>
      <trkpt lat="44.36827" lon="4.05035">
        <ele>680.89</ele>
        <time>2020-10-12T12:24:06.000Z</time>
      </trkpt>
      <trkpt lat="44.36811" lon="4.05047">
        <ele>678.27</ele>
        <time>2020-10-12T12:24:26.000Z</time>
      </trkpt>
      <trkpt lat="44.36817" lon="4.05023">
        <ele>679.04</ele>
        <time>2020-10-12T12:26:06.000Z</time>
      </trkpt>
      <trkpt lat="44.36827" lon="4.05002">
        <ele>675.49</ele>
        <time>2020-10-12T12:26:26.000Z</time>
      </trkpt>
      <trkpt lat="44.36816" lon="4.04981">
        <ele>666.67</ele>
        <time>2020-10-12T12:27:33.000Z</time>
      </trkpt>
      <trkpt lat="44.36833" lon="4.04969">
        <ele>658.13</ele>
        <time>2020-10-12T12:28:05.000Z</time>
      </trkpt>
      <trkpt lat="44.36848" lon="4.04956">
        <ele>650.15</ele>
        <time>2020-10-12T12:28:38.000Z</time>
      </trkpt>
      <trkpt lat="44.36863" lon="4.0494">
        <ele>644.78</ele>
        <time>2020-10-12T12:28:59.000Z</time>
      </trkpt>
      <trkpt lat="44.36879" lon="4.0493">
        <ele>640.92</ele>
        <time>2020-10-12T12:29:23.000Z</time>
      </trkpt>
      <trkpt lat="44.36896" lon="4.0492">
        <ele>642.18</ele>
        <time>2020-10-12T12:29:44.000Z</time>
      </trkpt>
      <trkpt lat="44.36915" lon="4.04916">
        <ele>638.09</ele>
        <time>2020-10-12T12:30:04.000Z</time>
      </trkpt>
      <trkpt lat="44.36931" lon="4.04905">
        <ele>638.97</ele>
        <time>2020-10-12T12:30:24.000Z</time>
      </trkpt>
      <trkpt lat="44.36949" lon="4.04895">
        <ele>635.06</ele>
        <time>2020-10-12T12:30:40.000Z</time>
      </trkpt>
      <trkpt lat="44.36966" lon="4.04886">
        <ele>638.55</ele>
        <time>2020-10-12T12:31:05.000Z</time>
      </trkpt>
      <trkpt lat="44.36976" lon="4.04865">
        <ele>639.95</ele>
        <time>2020-10-12T12:31:16.000Z</time>
      </trkpt>
      <trkpt lat="44.36987" lon="4.04844">
        <ele>645.77</ele>
        <time>2020-10-12T12:31:36.000Z</time>
      </trkpt>
      <trkpt lat="44.3699" lon="4.04819">
        <ele>639.98</ele>
        <time>2020-10-12T12:31:56.000Z</time>
      </trkpt>
      <trkpt lat="44.37007" lon="4.04774">
        <ele>640.88</ele>
        <time>2020-10-12T12:32:32.000Z</time>
      </trkpt>
      <trkpt lat="44.37006" lon="4.04748">
        <ele>633.03</ele>
        <time>2020-10-12T12:32:46.000Z</time>
      </trkpt>
      <trkpt lat="44.3702" lon="4.04732">
        <ele>625.97</ele>
        <time>2020-10-12T12:33:11.000Z</time>
      </trkpt>
      <trkpt lat="44.37035" lon="4.04717">
        <ele>621.18</ele>
        <time>2020-10-12T12:33:40.000Z</time>
      </trkpt>
      <trkpt lat="44.37044" lon="4.04694">
        <ele>618.45</ele>
        <time>2020-10-12T12:34:03.000Z</time>
      </trkpt>
      <trkpt lat="44.3706" lon="4.0468">
        <ele>616.09</ele>
        <time>2020-10-12T12:36:23.000Z</time>
      </trkpt>
      <trkpt lat="44.37076" lon="4.04668">
        <ele>616.57</ele>
        <time>2020-10-12T12:36:45.000Z</time>
      </trkpt>
      <trkpt lat="44.37092" lon="4.04656">
        <ele>621.97</ele>
        <time>2020-10-12T12:37:07.000Z</time>
      </trkpt>
      <trkpt lat="44.37109" lon="4.04646">
        <ele>614.08</ele>
        <time>2020-10-12T12:37:34.000Z</time>
      </trkpt>
      <trkpt lat="44.37106" lon="4.04621">
        <ele>616.69</ele>
        <time>2020-10-12T12:37:45.000Z</time>
      </trkpt>
      <trkpt lat="44.3712" lon="4.04604">
        <ele>618.58</ele>
        <time>2020-10-12T12:38:09.000Z</time>
      </trkpt>
      <trkpt lat="44.37132" lon="4.04584">
        <ele>626.86</ele>
        <time>2020-10-12T12:42:03.000Z</time>
      </trkpt>
      <trkpt lat="44.37136" lon="4.0456">
        <ele>632.15</ele>
        <time>2020-10-12T12:42:16.000Z</time>
      </trkpt>
      <trkpt lat="44.37144" lon="4.04535">
        <ele>628.84</ele>
        <time>2020-10-12T12:42:36.000Z</time>
      </trkpt>
      <trkpt lat="44.37161" lon="4.04523">
        <ele>628.64</ele>
        <time>2020-10-12T12:43:26.000Z</time>
      </trkpt>
      <trkpt lat="44.37179" lon="4.04525">
        <ele>630.27</ele>
        <time>2020-10-12T12:43:47.000Z</time>
      </trkpt>
      <trkpt lat="44.37197" lon="4.04522">
        <ele>623.29</ele>
        <time>2020-10-12T12:44:07.000Z</time>
      </trkpt>
      <trkpt lat="44.37179" lon="4.04519">
        <ele>629.58</ele>
        <time>2020-10-12T12:45:45.000Z</time>
      </trkpt>
      <trkpt lat="44.37161" lon="4.0452">
        <ele>621.91</ele>
        <time>2020-10-12T12:46:03.000Z</time>
      </trkpt>
      <trkpt lat="44.37143" lon="4.04516">
        <ele>613.86</ele>
        <time>2020-10-12T12:46:24.000Z</time>
      </trkpt>
      <trkpt lat="44.37125" lon="4.04516">
        <ele>621.95</ele>
        <time>2020-10-12T12:46:37.000Z</time>
      </trkpt>
      <trkpt lat="44.37106" lon="4.04517">
        <ele>617.88</ele>
        <time>2020-10-12T12:46:54.000Z</time>
      </trkpt>
      <trkpt lat="44.37091" lon="4.04531">
        <ele>613.69</ele>
        <time>2020-10-12T12:47:16.000Z</time>
      </trkpt>
      <trkpt lat="44.3708" lon="4.04554">
        <ele>610.27</ele>
        <time>2020-10-12T12:47:34.000Z</time>
      </trkpt>
      <trkpt lat="44.3707" lon="4.04576">
        <ele>601.67</ele>
        <time>2020-10-12T12:47:54.000Z</time>
      </trkpt>
      <trkpt lat="44.37058" lon="4.04596">
        <ele>602.02</ele>
        <time>2020-10-12T12:48:10.000Z</time>
      </trkpt>
      <trkpt lat="44.37045" lon="4.04613">
        <ele>605.06</ele>
        <time>2020-10-12T12:48:31.000Z</time>
      </trkpt>
      <trkpt lat="44.37033" lon="4.04634">
        <ele>605.57</ele>
        <time>2020-10-12T12:49:02.000Z</time>
      </trkpt>
      <trkpt lat="44.37019" lon="4.0465">
        <ele>603.84</ele>
        <time>2020-10-12T12:49:20.000Z</time>
      </trkpt>
      <trkpt lat="44.37005" lon="4.04669">
        <ele>596.95</ele>
        <time>2020-10-12T12:50:27.000Z</time>
      </trkpt>
      <trkpt lat="44.36987" lon="4.04678">
        <ele>590.88</ele>
        <time>2020-10-12T12:50:42.000Z</time>
      </trkpt>
      <trkpt lat="44.3697" lon="4.04683">
        <ele>581.67</ele>
        <time>2020-10-12T12:51:14.000Z</time>
      </trkpt>
      <trkpt lat="44.3695" lon="4.0469">
        <ele>579.89</ele>
        <time>2020-10-12T12:52:02.000Z</time>
      </trkpt>
      <trkpt lat="44.36937" lon="4.04708">
        <ele>576.37</ele>
        <time>2020-10-12T12:52:20.000Z</time>
      </trkpt>
      <trkpt lat="44.36926" lon="4.04728">
        <ele>573.9</ele>
        <time>2020-10-12T12:52:30.000Z</time>
      </trkpt>
      <trkpt lat="44.36916" lon="4.0475">
        <ele>572.02</ele>
        <time>2020-10-12T12:52:51.000Z</time>
      </trkpt>
      <trkpt lat="44.36898" lon="4.04756">
        <ele>570.98</ele>
        <time>2020-10-12T12:53:22.000Z</time>
      </trkpt>
      <trkpt lat="44.36879" lon="4.04757">
        <ele>569.28</ele>
        <time>2020-10-12T12:53:44.000Z</time>
      </trkpt>
      <trkpt lat="44.36861" lon="4.04755">
        <ele>564.15</ele>
        <time>2020-10-12T12:54:06.000Z</time>
      </trkpt>
      <trkpt lat="44.36846" lon="4.0474">
        <ele>560.55</ele>
        <time>2020-10-12T12:54:23.000Z</time>
      </trkpt>
      <trkpt lat="44.36827" lon="4.0474">
        <ele>557.09</ele>
        <time>2020-10-12T12:54:46.000Z</time>
      </trkpt>
      <trkpt lat="44.36811" lon="4.04751">
        <ele>555</ele>
        <time>2020-10-12T12:55:02.000Z</time>
      </trkpt>
      <trkpt lat="44.36792" lon="4.0475">
        <ele>550.75</ele>
        <time>2020-10-12T12:55:23.000Z</time>
      </trkpt>
      <trkpt lat="44.36774" lon="4.04746">
        <ele>549.17</ele>
        <time>2020-10-12T12:55:42.000Z</time>
      </trkpt>
      <trkpt lat="44.36756" lon="4.04744">
        <ele>544.37</ele>
        <time>2020-10-12T12:56:03.000Z</time>
      </trkpt>
      <trkpt lat="44.36738" lon="4.04737">
        <ele>542.73</ele>
        <time>2020-10-12T12:56:34.000Z</time>
      </trkpt>
      <trkpt lat="44.3672" lon="4.04731">
        <ele>532.98</ele>
        <time>2020-10-12T12:57:16.000Z</time>
      </trkpt>
      <trkpt lat="44.36702" lon="4.04727">
        <ele>523.01</ele>
        <time>2020-10-12T12:58:00.000Z</time>
      </trkpt>
      <trkpt lat="44.36684" lon="4.04736">
        <ele>525.03</ele>
        <time>2020-10-12T12:58:15.000Z</time>
      </trkpt>
      <trkpt lat="44.36665" lon="4.04732">
        <ele>521.77</ele>
        <time>2020-10-12T12:58:36.000Z</time>
      </trkpt>
      <trkpt lat="44.3665" lon="4.04717">
        <ele>519</ele>
        <time>2020-10-12T12:58:58.000Z</time>
      </trkpt>
      <trkpt lat="44.36633" lon="4.04708">
        <ele>510.28</ele>
        <time>2020-10-12T12:59:21.000Z</time>
      </trkpt>
      <trkpt lat="44.36615" lon="4.047">
        <ele>503</ele>
        <time>2020-10-12T12:59:43.000Z</time>
      </trkpt>
      <trkpt lat="44.36597" lon="4.04706">
        <ele>501.68</ele>
        <time>2020-10-12T13:00:05.000Z</time>
      </trkpt>
      <trkpt lat="44.36579" lon="4.047">
        <ele>497.56</ele>
        <time>2020-10-12T13:00:33.000Z</time>
      </trkpt>
      <trkpt lat="44.36561" lon="4.04694">
        <ele>494.01</ele>
        <time>2020-10-12T13:00:55.000Z</time>
      </trkpt>
      <trkpt lat="44.36544" lon="4.04685">
        <ele>490.97</ele>
        <time>2020-10-12T13:01:14.000Z</time>
      </trkpt>
      <trkpt lat="44.36531" lon="4.04666">
        <ele>483</ele>
        <time>2020-10-12T13:01:36.000Z</time>
      </trkpt>
      <trkpt lat="44.36516" lon="4.0465">
        <ele>481.25</ele>
        <time>2020-10-12T13:01:55.000Z</time>
      </trkpt>
      <trkpt lat="44.36497" lon="4.04646">
        <ele>481</ele>
        <time>2020-10-12T13:02:52.000Z</time>
      </trkpt>
      <trkpt lat="44.3648" lon="4.04658">
        <ele>479.89</ele>
        <time>2020-10-12T13:03:10.000Z</time>
      </trkpt>
      <trkpt lat="44.36462" lon="4.04666">
        <ele>477.77</ele>
        <time>2020-10-12T13:03:30.000Z</time>
      </trkpt>
      <trkpt lat="44.36446" lon="4.04679">
        <ele>478.03</ele>
        <time>2020-10-12T13:03:48.000Z</time>
      </trkpt>
      <trkpt lat="44.36429" lon="4.0469">
        <ele>473.9</ele>
        <time>2020-10-12T13:04:09.000Z</time>
      </trkpt>
      <trkpt lat="44.3642" lon="4.04713">
        <ele>471.07</ele>
        <time>2020-10-12T13:04:34.000Z</time>
      </trkpt>
      <trkpt lat="44.36413" lon="4.04737">
        <ele>474.19</ele>
        <time>2020-10-12T13:04:50.000Z</time>
      </trkpt>
      <trkpt lat="44.36411" lon="4.04762">
        <ele>469.97</ele>
        <time>2020-10-12T13:05:08.000Z</time>
      </trkpt>
      <trkpt lat="44.36403" lon="4.04785">
        <ele>468.38</ele>
        <time>2020-10-12T13:05:33.000Z</time>
      </trkpt>
      <trkpt lat="44.36391" lon="4.04805">
        <ele>466.73</ele>
        <time>2020-10-12T13:05:53.000Z</time>
      </trkpt>
      <trkpt lat="44.36374" lon="4.04816">
        <ele>476.68</ele>
        <time>2020-10-12T13:06:13.000Z</time>
      </trkpt>
      <trkpt lat="44.36359" lon="4.04829">
        <ele>475.78</ele>
        <time>2020-10-12T13:06:31.000Z</time>
      </trkpt>
      <trkpt lat="44.36344" lon="4.04845">
        <ele>473.01</ele>
        <time>2020-10-12T13:07:04.000Z</time>
      </trkpt>
      <trkpt lat="44.3633" lon="4.04861">
        <ele>476.16</ele>
        <time>2020-10-12T13:07:23.000Z</time>
      </trkpt>
      <trkpt lat="44.36313" lon="4.04872">
        <ele>478.87</ele>
        <time>2020-10-12T13:08:24.000Z</time>
      </trkpt>
      <trkpt lat="44.36331" lon="4.04881">
        <ele>478.07</ele>
        <time>2020-10-12T13:13:53.000Z</time>
      </trkpt>
      <trkpt lat="44.36347" lon="4.0487">
        <ele>480.95</ele>
        <time>2020-10-12T13:14:36.000Z</time>
      </trkpt>
      <trkpt lat="44.36365" lon="4.04866">
        <ele>487.98</ele>
        <time>2020-10-12T13:15:04.000Z</time>
      </trkpt>
      <trkpt lat="44.36361" lon="4.04891">
        <ele>493.57</ele>
        <time>2020-10-12T13:15:39.000Z</time>
      </trkpt>
      <trkpt lat="44.3635" lon="4.04912">
        <ele>496.88</ele>
        <time>2020-10-12T13:16:03.000Z</time>
      </trkpt>
      <trkpt lat="44.36347" lon="4.04937">
        <ele>497.51</ele>
        <time>2020-10-12T13:16:22.000Z</time>
      </trkpt>
      <trkpt lat="44.36339" lon="4.04961">
        <ele>500.88</ele>
        <time>2020-10-12T13:16:51.000Z</time>
      </trkpt>
      <trkpt lat="44.36341" lon="4.04987">
        <ele>500.74</ele>
        <time>2020-10-12T13:17:13.000Z</time>
      </trkpt>
      <trkpt lat="44.36349" lon="4.05011">
        <ele>505.67</ele>
        <time>2020-10-12T13:17:32.000Z</time>
      </trkpt>
      <trkpt lat="44.36346" lon="4.05037">
        <ele>508.28</ele>
        <time>2020-10-12T13:18:10.000Z</time>
      </trkpt>
      <trkpt lat="44.36345" lon="4.05062">
        <ele>507.68</ele>
        <time>2020-10-12T13:18:26.000Z</time>
      </trkpt>
      <trkpt lat="44.36339" lon="4.05088">
        <ele>509.57</ele>
        <time>2020-10-12T13:18:37.000Z</time>
      </trkpt>
      <trkpt lat="44.36329" lon="4.0511">
        <ele>513.61</ele>
        <time>2020-10-12T13:18:50.000Z</time>
      </trkpt>
      <trkpt lat="44.36326" lon="4.05135">
        <ele>512.93</ele>
        <time>2020-10-12T13:19:17.000Z</time>
      </trkpt>
      <trkpt lat="44.36333" lon="4.0516">
        <ele>516.17</ele>
        <time>2020-10-12T13:19:37.000Z</time>
      </trkpt>
      <trkpt lat="44.36323" lon="4.05183">
        <ele>515.13</ele>
        <time>2020-10-12T13:19:54.000Z</time>
      </trkpt>
      <trkpt lat="44.36311" lon="4.05202">
        <ele>516.97</ele>
        <time>2020-10-12T13:20:15.000Z</time>
      </trkpt>
      <trkpt lat="44.36299" lon="4.05223">
        <ele>518.6</ele>
        <time>2020-10-12T13:20:33.000Z</time>
      </trkpt>
      <trkpt lat="44.36283" lon="4.05237">
        <ele>520.77</ele>
        <time>2020-10-12T13:21:00.000Z</time>
      </trkpt>
      <trkpt lat="44.36267" lon="4.05252">
        <ele>521.69</ele>
        <time>2020-10-12T13:21:20.000Z</time>
      </trkpt>
      <trkpt lat="44.36256" lon="4.05273">
        <ele>521.96</ele>
        <time>2020-10-12T13:21:39.000Z</time>
      </trkpt>
      <trkpt lat="44.36252" lon="4.05298">
        <ele>523.66</ele>
        <time>2020-10-12T13:21:58.000Z</time>
      </trkpt>
      <trkpt lat="44.36248" lon="4.05323">
        <ele>522.31</ele>
        <time>2020-10-12T13:22:19.000Z</time>
      </trkpt>
      <trkpt lat="44.36261" lon="4.05342">
        <ele>520.19</ele>
        <time>2020-10-12T13:22:37.000Z</time>
      </trkpt>
      <trkpt lat="44.36266" lon="4.05368">
        <ele>528.58</ele>
        <time>2020-10-12T13:22:56.000Z</time>
      </trkpt>
      <trkpt lat="44.36263" lon="4.05392">
        <ele>529.78</ele>
        <time>2020-10-12T13:23:16.000Z</time>
      </trkpt>
      <trkpt lat="44.36257" lon="4.05418">
        <ele>530.99</ele>
        <time>2020-10-12T13:23:29.000Z</time>
      </trkpt>
      <trkpt lat="44.36254" lon="4.05447">
        <ele>528.02</ele>
        <time>2020-10-12T13:23:49.000Z</time>
      </trkpt>
      <trkpt lat="44.36261" lon="4.05471">
        <ele>531.89</ele>
        <time>2020-10-12T13:24:07.000Z</time>
      </trkpt>
      <trkpt lat="44.36267" lon="4.05495">
        <ele>533.89</ele>
        <time>2020-10-12T13:24:27.000Z</time>
      </trkpt>
      <trkpt lat="44.36283" lon="4.05508">
        <ele>525.98</ele>
        <time>2020-10-12T13:26:24.000Z</time>
      </trkpt>
      <trkpt lat="44.36301" lon="4.05515">
        <ele>524.08</ele>
        <time>2020-10-12T13:26:38.000Z</time>
      </trkpt>
      <trkpt lat="44.36318" lon="4.05526">
        <ele>521.36</ele>
        <time>2020-10-12T13:26:50.000Z</time>
      </trkpt>
      <trkpt lat="44.36336" lon="4.05532">
        <ele>513.74</ele>
        <time>2020-10-12T13:27:08.000Z</time>
      </trkpt>
      <trkpt lat="44.36354" lon="4.05543">
        <ele>515.87</ele>
        <time>2020-10-12T13:27:26.000Z</time>
      </trkpt>
      <trkpt lat="44.36372" lon="4.05548">
        <ele>517.02</ele>
        <time>2020-10-12T13:27:44.000Z</time>
      </trkpt>
      <trkpt lat="44.36386" lon="4.05564">
        <ele>515.8</ele>
        <time>2020-10-12T13:28:02.000Z</time>
      </trkpt>
      <trkpt lat="44.364" lon="4.05579">
        <ele>516.62</ele>
        <time>2020-10-12T13:28:18.000Z</time>
      </trkpt>
      <trkpt lat="44.36415" lon="4.05595">
        <ele>523.96</ele>
        <time>2020-10-12T13:28:37.000Z</time>
      </trkpt>
      <trkpt lat="44.36431" lon="4.05581">
        <ele>523.14</ele>
        <time>2020-10-12T13:29:00.000Z</time>
      </trkpt>
      <trkpt lat="44.36441" lon="4.05559">
        <ele>530.39</ele>
        <time>2020-10-12T13:29:20.000Z</time>
      </trkpt>
      <trkpt lat="44.36453" lon="4.0554">
        <ele>532.08</ele>
        <time>2020-10-12T13:29:47.000Z</time>
      </trkpt>
      <trkpt lat="44.36463" lon="4.05518">
        <ele>536.62</ele>
        <time>2020-10-12T13:30:09.000Z</time>
      </trkpt>
      <trkpt lat="44.36476" lon="4.05501">
        <ele>540.98</ele>
        <time>2020-10-12T13:30:36.000Z</time>
      </trkpt>
      <trkpt lat="44.36494" lon="4.05491">
        <ele>540</ele>
        <time>2020-10-12T13:30:58.000Z</time>
      </trkpt>
      <trkpt lat="44.36508" lon="4.05476">
        <ele>540.08</ele>
        <time>2020-10-12T13:31:38.000Z</time>
      </trkpt>
      <trkpt lat="44.36525" lon="4.05466">
        <ele>534.32</ele>
        <time>2020-10-12T13:31:55.000Z</time>
      </trkpt>
      <trkpt lat="44.36542" lon="4.05456">
        <ele>541.66</ele>
        <time>2020-10-12T13:32:27.000Z</time>
      </trkpt>
      <trkpt lat="44.36557" lon="4.0544">
        <ele>541.99</ele>
        <time>2020-10-12T13:32:41.000Z</time>
      </trkpt>
      <trkpt lat="44.36575" lon="4.0544">
        <ele>548.09</ele>
        <time>2020-10-12T13:33:07.000Z</time>
      </trkpt>
      <trkpt lat="44.36593" lon="4.05438">
        <ele>560.8</ele>
        <time>2020-10-12T13:33:39.000Z</time>
      </trkpt>
      <trkpt lat="44.36607" lon="4.05421">
        <ele>563.89</ele>
        <time>2020-10-12T13:36:23.000Z</time>
      </trkpt>
      <trkpt lat="44.36622" lon="4.05406">
        <ele>560.99</ele>
        <time>2020-10-12T13:36:44.000Z</time>
      </trkpt>
      <trkpt lat="44.36633" lon="4.05385">
        <ele>556.64</ele>
        <time>2020-10-12T13:37:34.000Z</time>
      </trkpt>
      <trkpt lat="44.36643" lon="4.05363">
        <ele>556.9</ele>
        <time>2020-10-12T13:37:48.000Z</time>
      </trkpt>
      <trkpt lat="44.36654" lon="4.05342">
        <ele>566.98</ele>
        <time>2020-10-12T13:38:20.000Z</time>
      </trkpt>
      <trkpt lat="44.36665" lon="4.05322">
        <ele>569.27</ele>
        <time>2020-10-12T13:38:46.000Z</time>
      </trkpt>
      <trkpt lat="44.36677" lon="4.05302">
        <ele>572.68</ele>
        <time>2020-10-12T13:39:15.000Z</time>
      </trkpt>
      <trkpt lat="44.36694" lon="4.05298">
        <ele>582.67</ele>
        <time>2020-10-12T13:39:58.000Z</time>
      </trkpt>
      <trkpt lat="44.36713" lon="4.05303">
        <ele>579.58</ele>
        <time>2020-10-12T13:41:06.000Z</time>
      </trkpt>
      <trkpt lat="44.36728" lon="4.05319">
        <ele>586.18</ele>
        <time>2020-10-12T13:42:16.000Z</time>
      </trkpt>
      <trkpt lat="44.36746" lon="4.05316">
        <ele>598.19</ele>
        <time>2020-10-12T13:44:25.000Z</time>
      </trkpt>
      <trkpt lat="44.36763" lon="4.05327">
        <ele>602.89</ele>
        <time>2020-10-12T13:45:10.000Z</time>
      </trkpt>
      <trkpt lat="44.36779" lon="4.05338">
        <ele>610.07</ele>
        <time>2020-10-12T13:46:37.000Z</time>
      </trkpt>
      <trkpt lat="44.36791" lon="4.05358">
        <ele>612.73</ele>
        <time>2020-10-12T13:47:27.000Z</time>
      </trkpt>
      <trkpt lat="44.36807" lon="4.05371">
        <ele>627.68</ele>
        <time>2020-10-12T13:48:47.000Z</time>
      </trkpt>
      <trkpt lat="44.368" lon="4.05396">
        <ele>632.06</ele>
        <time>2020-10-12T13:51:08.000Z</time>
      </trkpt>
      <trkpt lat="44.36782" lon="4.05401">
        <ele>630.88</ele>
        <time>2020-10-12T13:51:26.000Z</time>
      </trkpt>
      <trkpt lat="44.36765" lon="4.05416">
        <ele>626.97</ele>
        <time>2020-10-12T13:51:50.000Z</time>
      </trkpt>
      <trkpt lat="44.36755" lon="4.05438">
        <ele>624.65</ele>
        <time>2020-10-12T13:52:07.000Z</time>
      </trkpt>
      <trkpt lat="44.36744" lon="4.05458">
        <ele>619.16</ele>
        <time>2020-10-12T13:52:25.000Z</time>
      </trkpt>
      <trkpt lat="44.36732" lon="4.05477">
        <ele>619.86</ele>
        <time>2020-10-12T13:52:45.000Z</time>
      </trkpt>
      <trkpt lat="44.36726" lon="4.05502">
        <ele>616.65</ele>
        <time>2020-10-12T13:53:07.000Z</time>
      </trkpt>
      <trkpt lat="44.36723" lon="4.05528">
        <ele>613.31</ele>
        <time>2020-10-12T13:53:27.000Z</time>
      </trkpt>
      <trkpt lat="44.36717" lon="4.05552">
        <ele>613.05</ele>
        <time>2020-10-12T13:53:45.000Z</time>
      </trkpt>
      <trkpt lat="44.36706" lon="4.05573">
        <ele>610.98</ele>
        <time>2020-10-12T13:54:06.000Z</time>
      </trkpt>
      <trkpt lat="44.36696" lon="4.05596">
        <ele>604.32</ele>
        <time>2020-10-12T13:54:25.000Z</time>
      </trkpt>
      <trkpt lat="44.36685" lon="4.05617">
        <ele>604.98</ele>
        <time>2020-10-12T13:54:47.000Z</time>
      </trkpt>
      <trkpt lat="44.3667" lon="4.05634">
        <ele>607.31</ele>
        <time>2020-10-12T13:55:02.000Z</time>
      </trkpt>
      <trkpt lat="44.36677" lon="4.05658">
        <ele>602.41</ele>
        <time>2020-10-12T13:55:25.000Z</time>
      </trkpt>
      <trkpt lat="44.36679" lon="4.05684">
        <ele>602.62</ele>
        <time>2020-10-12T13:55:57.000Z</time>
      </trkpt>
      <trkpt lat="44.36673" lon="4.05707">
        <ele>598.65</ele>
        <time>2020-10-12T13:56:09.000Z</time>
      </trkpt>
      <trkpt lat="44.36657" lon="4.05721">
        <ele>593.38</ele>
        <time>2020-10-12T13:56:31.000Z</time>
      </trkpt>
      <trkpt lat="44.36641" lon="4.05734">
        <ele>589.3</ele>
        <time>2020-10-12T13:56:51.000Z</time>
      </trkpt>
      <trkpt lat="44.36623" lon="4.05731">
        <ele>585.42</ele>
        <time>2020-10-12T13:57:10.000Z</time>
      </trkpt>
      <trkpt lat="44.36604" lon="4.05729">
        <ele>570.72</ele>
        <time>2020-10-12T13:57:36.000Z</time>
      </trkpt>
      <trkpt lat="44.3659" lon="4.05745">
        <ele>570.09</ele>
        <time>2020-10-12T13:57:58.000Z</time>
      </trkpt>
      <trkpt lat="44.36577" lon="4.05764">
        <ele>570.4</ele>
        <time>2020-10-12T13:58:12.000Z</time>
      </trkpt>
      <trkpt lat="44.36567" lon="4.05785">
        <ele>572.39</ele>
        <time>2020-10-12T13:58:33.000Z</time>
      </trkpt>
      <trkpt lat="44.36554" lon="4.05804">
        <ele>564.64</ele>
        <time>2020-10-12T13:58:59.000Z</time>
      </trkpt>
      <trkpt lat="44.36543" lon="4.05824">
        <ele>560.95</ele>
        <time>2020-10-12T13:59:32.000Z</time>
      </trkpt>
      <trkpt lat="44.36525" lon="4.05831">
        <ele>559.28</ele>
        <time>2020-10-12T13:59:46.000Z</time>
      </trkpt>
      <trkpt lat="44.3651" lon="4.05847">
        <ele>550.52</ele>
        <time>2020-10-12T14:00:04.000Z</time>
      </trkpt>
      <trkpt lat="44.36493" lon="4.05858">
        <ele>549.96</ele>
        <time>2020-10-12T14:00:17.000Z</time>
      </trkpt>
      <trkpt lat="44.36475" lon="4.05866">
        <ele>544.22</ele>
        <time>2020-10-12T14:00:34.000Z</time>
      </trkpt>
      <trkpt lat="44.36458" lon="4.05872">
        <ele>547.99</ele>
        <time>2020-10-12T14:00:53.000Z</time>
      </trkpt>
      <trkpt lat="44.36442" lon="4.05885">
        <ele>544.37</ele>
        <time>2020-10-12T14:01:11.000Z</time>
      </trkpt>
      <trkpt lat="44.36425" lon="4.05896">
        <ele>546.29</ele>
        <time>2020-10-12T14:01:33.000Z</time>
      </trkpt>
      <trkpt lat="44.36408" lon="4.05903">
        <ele>542.71</ele>
        <time>2020-10-12T14:01:49.000Z</time>
      </trkpt>
      <trkpt lat="44.36391" lon="4.05915">
        <ele>542.9</ele>
        <time>2020-10-12T14:02:06.000Z</time>
      </trkpt>
      <trkpt lat="44.36377" lon="4.05931">
        <ele>550.51</ele>
        <time>2020-10-12T14:02:24.000Z</time>
      </trkpt>
      <trkpt lat="44.36371" lon="4.05955">
        <ele>553.02</ele>
        <time>2020-10-12T14:03:20.000Z</time>
      </trkpt>
      <trkpt lat="44.36376" lon="4.05981">
        <ele>546.38</ele>
        <time>2020-10-12T14:03:44.000Z</time>
      </trkpt>
      <trkpt lat="44.36388" lon="4.06001">
        <ele>545.18</ele>
        <time>2020-10-12T14:03:59.000Z</time>
      </trkpt>
      <trkpt lat="44.36396" lon="4.06026">
        <ele>546.11</ele>
        <time>2020-10-12T14:04:38.000Z</time>
      </trkpt>
      <trkpt lat="44.36397" lon="4.06052">
        <ele>544.1</ele>
        <time>2020-10-12T14:04:50.000Z</time>
      </trkpt>
      <trkpt lat="44.36403" lon="4.06077">
        <ele>538.7</ele>
        <time>2020-10-12T14:05:04.000Z</time>
      </trkpt>
      <trkpt lat="44.36417" lon="4.06094">
        <ele>538.62</ele>
        <time>2020-10-12T14:05:18.000Z</time>
      </trkpt>
      <trkpt lat="44.36431" lon="4.06111">
        <ele>535.72</ele>
        <time>2020-10-12T14:05:38.000Z</time>
      </trkpt>
      <trkpt lat="44.36439" lon="4.06134">
        <ele>530.87</ele>
        <time>2020-10-12T14:05:55.000Z</time>
      </trkpt>
      <trkpt lat="44.36447" lon="4.06158">
        <ele>528.3</ele>
        <time>2020-10-12T14:06:13.000Z</time>
      </trkpt>
      <trkpt lat="44.36449" lon="4.06183">
        <ele>533.39</ele>
        <time>2020-10-12T14:06:41.000Z</time>
      </trkpt>
      <trkpt lat="44.36437" lon="4.06202">
        <ele>536.11</ele>
        <time>2020-10-12T14:06:56.000Z</time>
      </trkpt>
      <trkpt lat="44.36423" lon="4.06219">
        <ele>529.28</ele>
        <time>2020-10-12T14:07:18.000Z</time>
      </trkpt>
      <trkpt lat="44.36409" lon="4.06234">
        <ele>526.13</ele>
        <time>2020-10-12T14:07:40.000Z</time>
      </trkpt>
      <trkpt lat="44.36393" lon="4.06248">
        <ele>524.32</ele>
        <time>2020-10-12T14:07:55.000Z</time>
      </trkpt>
      <trkpt lat="44.36377" lon="4.06261">
        <ele>522.15</ele>
        <time>2020-10-12T14:08:14.000Z</time>
      </trkpt>
      <trkpt lat="44.36365" lon="4.06282">
        <ele>520.9</ele>
        <time>2020-10-12T14:08:29.000Z</time>
      </trkpt>
      <trkpt lat="44.36347" lon="4.06291">
        <ele>517.41</ele>
        <time>2020-10-12T14:08:47.000Z</time>
      </trkpt>
      <trkpt lat="44.3633" lon="4.06301">
        <ele>514.06</ele>
        <time>2020-10-12T14:09:07.000Z</time>
      </trkpt>
      <trkpt lat="44.36314" lon="4.06311">
        <ele>504.18</ele>
        <time>2020-10-12T14:09:27.000Z</time>
      </trkpt>
      <trkpt lat="44.36299" lon="4.06325">
        <ele>505.01</ele>
        <time>2020-10-12T14:09:46.000Z</time>
      </trkpt>
      <trkpt lat="44.36284" lon="4.06343">
        <ele>503.17</ele>
        <time>2020-10-12T14:10:09.000Z</time>
      </trkpt>
      <trkpt lat="44.36267" lon="4.06352">
        <ele>505.76</ele>
        <time>2020-10-12T14:10:21.000Z</time>
      </trkpt>
      <trkpt lat="44.36253" lon="4.0637">
        <ele>504.02</ele>
        <time>2020-10-12T14:10:32.000Z</time>
      </trkpt>
      <trkpt lat="44.36233" lon="4.06375">
        <ele>512.65</ele>
        <time>2020-10-12T14:11:12.000Z</time>
      </trkpt>
      <trkpt lat="44.36216" lon="4.06383">
        <ele>509.2</ele>
        <time>2020-10-12T14:11:21.000Z</time>
      </trkpt>
      <trkpt lat="44.36199" lon="4.06396">
        <ele>502.52</ele>
        <time>2020-10-12T14:11:35.000Z</time>
      </trkpt>
      <trkpt lat="44.36182" lon="4.06406">
        <ele>505.73</ele>
        <time>2020-10-12T14:11:49.000Z</time>
      </trkpt>
      <trkpt lat="44.36163" lon="4.06412">
        <ele>499.05</ele>
        <time>2020-10-12T14:12:06.000Z</time>
      </trkpt>
      <trkpt lat="44.36144" lon="4.06407">
        <ele>499.93</ele>
        <time>2020-10-12T14:12:23.000Z</time>
      </trkpt>
      <trkpt lat="44.36125" lon="4.06405">
        <ele>500.21</ele>
        <time>2020-10-12T14:12:41.000Z</time>
      </trkpt>
      <trkpt lat="44.36109" lon="4.0642">
        <ele>497.78</ele>
        <time>2020-10-12T14:12:59.000Z</time>
      </trkpt>
      <trkpt lat="44.36094" lon="4.06436">
        <ele>503.56</ele>
        <time>2020-10-12T14:13:16.000Z</time>
      </trkpt>
      <trkpt lat="44.3608" lon="4.06452">
        <ele>505.61</ele>
        <time>2020-10-12T14:13:32.000Z</time>
      </trkpt>
      <trkpt lat="44.36071" lon="4.06474">
        <ele>500.01</ele>
        <time>2020-10-12T14:13:51.000Z</time>
      </trkpt>
      <trkpt lat="44.36061" lon="4.06497">
        <ele>498.89</ele>
        <time>2020-10-12T14:14:09.000Z</time>
      </trkpt>
      <trkpt lat="44.36054" lon="4.06524">
        <ele>494.06</ele>
        <time>2020-10-12T14:14:31.000Z</time>
      </trkpt>
      <trkpt lat="44.36045" lon="4.06546">
        <ele>490.03</ele>
        <time>2020-10-12T14:14:44.000Z</time>
      </trkpt>
      <trkpt lat="44.3604" lon="4.0657">
        <ele>490.1</ele>
        <time>2020-10-12T14:15:11.000Z</time>
      </trkpt>
      <trkpt lat="44.36024" lon="4.06584">
        <ele>483.81</ele>
        <time>2020-10-12T14:15:41.000Z</time>
      </trkpt>
      <trkpt lat="44.36012" lon="4.06603">
        <ele>477.95</ele>
        <time>2020-10-12T14:16:05.000Z</time>
      </trkpt>
      <trkpt lat="44.35998" lon="4.06618">
        <ele>476.02</ele>
        <time>2020-10-12T14:16:20.000Z</time>
      </trkpt>
      <trkpt lat="44.35983" lon="4.06633">
        <ele>469.21</ele>
        <time>2020-10-12T14:16:42.000Z</time>
      </trkpt>
      <trkpt lat="44.35965" lon="4.06642">
        <ele>466.92</ele>
        <time>2020-10-12T14:17:03.000Z</time>
      </trkpt>
      <trkpt lat="44.35951" lon="4.06658">
        <ele>463.3</ele>
        <time>2020-10-12T14:17:19.000Z</time>
      </trkpt>
      <trkpt lat="44.35937" lon="4.06677">
        <ele>462.34</ele>
        <time>2020-10-12T14:17:42.000Z</time>
      </trkpt>
      <trkpt lat="44.35926" lon="4.06697">
        <ele>461.02</ele>
        <time>2020-10-12T14:17:55.000Z</time>
      </trkpt>
      <trkpt lat="44.35913" lon="4.06717">
        <ele>454.96</ele>
        <time>2020-10-12T14:18:19.000Z</time>
      </trkpt>
      <trkpt lat="44.35898" lon="4.06733">
        <ele>455.79</ele>
        <time>2020-10-12T14:18:35.000Z</time>
      </trkpt>
      <trkpt lat="44.35885" lon="4.06752">
        <ele>454.3</ele>
        <time>2020-10-12T14:18:50.000Z</time>
      </trkpt>
      <trkpt lat="44.35875" lon="4.06773">
        <ele>448</ele>
        <time>2020-10-12T14:19:18.000Z</time>
      </trkpt>
      <trkpt lat="44.35863" lon="4.06793">
        <ele>445</ele>
        <time>2020-10-12T14:19:33.000Z</time>
      </trkpt>
      <trkpt lat="44.35856" lon="4.06819">
        <ele>445</ele>
        <time>2020-10-12T14:19:49.000Z</time>
      </trkpt>
      <trkpt lat="44.35843" lon="4.06836">
        <ele>442.39</ele>
        <time>2020-10-12T14:20:16.000Z</time>
      </trkpt>
      <trkpt lat="44.35826" lon="4.06845">
        <ele>434.8</ele>
        <time>2020-10-12T14:22:53.000Z</time>
      </trkpt>
      <trkpt lat="44.35811" lon="4.06859">
        <ele>437.28</ele>
        <time>2020-10-12T14:23:19.000Z</time>
      </trkpt>
      <trkpt lat="44.35792" lon="4.06865">
        <ele>431.01</ele>
        <time>2020-10-12T14:23:52.000Z</time>
      </trkpt>
      <trkpt lat="44.35775" lon="4.06856">
        <ele>424.02</ele>
        <time>2020-10-12T14:24:06.000Z</time>
      </trkpt>
      <trkpt lat="44.35757" lon="4.06851">
        <ele>424.01</ele>
        <time>2020-10-12T14:24:23.000Z</time>
      </trkpt>
      <trkpt lat="44.3574" lon="4.06863">
        <ele>420.99</ele>
        <time>2020-10-12T14:24:45.000Z</time>
      </trkpt>
      <trkpt lat="44.35727" lon="4.06881">
        <ele>420</ele>
        <time>2020-10-12T14:25:00.000Z</time>
      </trkpt>
      <trkpt lat="44.35715" lon="4.06901">
        <ele>418.13</ele>
        <time>2020-10-12T14:25:26.000Z</time>
      </trkpt>
      <trkpt lat="44.35701" lon="4.06919">
        <ele>411.31</ele>
        <time>2020-10-12T14:25:43.000Z</time>
      </trkpt>
      <trkpt lat="44.35689" lon="4.06938">
        <ele>404.22</ele>
        <time>2020-10-12T14:26:11.000Z</time>
      </trkpt>
      <trkpt lat="44.35673" lon="4.06953">
        <ele>397.04</ele>
        <time>2020-10-12T14:26:30.000Z</time>
      </trkpt>
      <trkpt lat="44.35666" lon="4.06977">
        <ele>395.18</ele>
        <time>2020-10-12T14:26:48.000Z</time>
      </trkpt>
      <trkpt lat="44.35669" lon="4.07002">
        <ele>391.29</ele>
        <time>2020-10-12T14:27:19.000Z</time>
      </trkpt>
      <trkpt lat="44.35671" lon="4.07027">
        <ele>385.04</ele>
        <time>2020-10-12T14:27:54.000Z</time>
      </trkpt>
      <trkpt lat="44.35654" lon="4.07019">
        <ele>383</ele>
        <time>2020-10-12T14:28:24.000Z</time>
      </trkpt>
      <trkpt lat="44.35663" lon="4.07042">
        <ele>379.8</ele>
        <time>2020-10-12T14:29:55.000Z</time>
      </trkpt>
      <trkpt lat="44.35651" lon="4.07062">
        <ele>378.33</ele>
        <time>2020-10-12T14:30:14.000Z</time>
      </trkpt>
      <trkpt lat="44.35653" lon="4.07088">
        <ele>368.32</ele>
        <time>2020-10-12T14:30:41.000Z</time>
      </trkpt>
      <trkpt lat="44.35646" lon="4.07111">
        <ele>360.04</ele>
        <time>2020-10-12T14:31:11.000Z</time>
      </trkpt>
      <trkpt lat="44.35636" lon="4.07133">
        <ele>350.23</ele>
        <time>2020-10-12T14:31:45.000Z</time>
      </trkpt>
      <trkpt lat="44.35619" lon="4.0714">
        <ele>342.34</ele>
        <time>2020-10-12T14:32:25.000Z</time>
      </trkpt>
      <trkpt lat="44.35608" lon="4.07119">
        <ele>339.22</ele>
        <time>2020-10-12T14:32:49.000Z</time>
      </trkpt>
      <trkpt lat="44.35594" lon="4.07102">
        <ele>335.77</ele>
        <time>2020-10-12T14:33:14.000Z</time>
      </trkpt>
      <trkpt lat="44.3558" lon="4.07083">
        <ele>333.12</ele>
        <time>2020-10-12T14:33:31.000Z</time>
      </trkpt>
      <trkpt lat="44.35567" lon="4.07066">
        <ele>325.04</ele>
        <time>2020-10-12T14:33:54.000Z</time>
      </trkpt>
      <trkpt lat="44.35553" lon="4.07048">
        <ele>324.71</ele>
        <time>2020-10-12T14:34:15.000Z</time>
      </trkpt>
      <trkpt lat="44.35539" lon="4.07033">
        <ele>322.05</ele>
        <time>2020-10-12T14:34:27.000Z</time>
      </trkpt>
      <trkpt lat="44.35525" lon="4.07014">
        <ele>317.89</ele>
        <time>2020-10-12T14:34:42.000Z</time>
      </trkpt>
      <trkpt lat="44.35507" lon="4.07011">
        <ele>317.1</ele>
        <time>2020-10-12T14:34:56.000Z</time>
      </trkpt>
      <trkpt lat="44.35489" lon="4.0701">
        <ele>318.68</ele>
        <time>2020-10-12T14:35:24.000Z</time>
      </trkpt>
      <trkpt lat="44.3547" lon="4.07011">
        <ele>316.01</ele>
        <time>2020-10-12T14:35:38.000Z</time>
      </trkpt>
      <trkpt lat="44.35452" lon="4.0701">
        <ele>314.08</ele>
        <time>2020-10-12T14:35:54.000Z</time>
      </trkpt>
      <trkpt lat="44.35434" lon="4.07008">
        <ele>315.6</ele>
        <time>2020-10-12T14:36:10.000Z</time>
      </trkpt>
      <trkpt lat="44.35416" lon="4.06998">
        <ele>317.74</ele>
        <time>2020-10-12T14:36:27.000Z</time>
      </trkpt>
      <trkpt lat="44.35406" lon="4.07019">
        <ele>314.49</ele>
        <time>2020-10-12T14:36:49.000Z</time>
      </trkpt>
      <trkpt lat="44.3539" lon="4.07034">
        <ele>308.1</ele>
        <time>2020-10-12T14:37:26.000Z</time>
      </trkpt>
      <trkpt lat="44.35377" lon="4.07052">
        <ele>305.1</ele>
        <time>2020-10-12T14:37:56.000Z</time>
      </trkpt>
      <trkpt lat="44.35393" lon="4.07066">
        <ele>304.13</ele>
        <time>2020-10-12T14:41:20.000Z</time>
      </trkpt>
      <trkpt lat="44.35409" lon="4.07081">
        <ele>299.35</ele>
        <time>2020-10-12T14:41:42.000Z</time>
      </trkpt>
      <trkpt lat="44.35392" lon="4.07089">
        <ele>310.95</ele>
        <time>2020-10-12T14:42:37.000Z</time>
      </trkpt>
      <trkpt lat="44.35376" lon="4.07102">
        <ele>336.66</ele>
        <time>2020-10-12T14:43:49.000Z</time>
      </trkpt>
      <trkpt lat="44.35361" lon="4.07119">
        <ele>332.95</ele>
        <time>2020-10-12T14:44:25.000Z</time>
      </trkpt>
      <trkpt lat="44.35346" lon="4.07134">
        <ele>349.01</ele>
        <time>2020-10-12T14:45:54.000Z</time>
      </trkpt>
      <trkpt lat="44.35332" lon="4.07119">
        <ele>356.95</ele>
        <time>2020-10-12T14:46:30.000Z</time>
      </trkpt>
      <trkpt lat="44.35332" lon="4.07145">
        <ele>363.2</ele>
        <time>2020-10-12T14:47:02.000Z</time>
      </trkpt>
      <trkpt lat="44.35327" lon="4.0717">
        <ele>364.35</ele>
        <time>2020-10-12T14:47:28.000Z</time>
      </trkpt>
      <trkpt lat="44.35319" lon="4.07195">
        <ele>363.69</ele>
        <time>2020-10-12T14:47:47.000Z</time>
      </trkpt>
      <trkpt lat="44.35305" lon="4.07212">
        <ele>364.74</ele>
        <time>2020-10-12T14:48:02.000Z</time>
      </trkpt>
      <trkpt lat="44.35295" lon="4.07233">
        <ele>367.96</ele>
        <time>2020-10-12T14:48:25.000Z</time>
      </trkpt>
      <trkpt lat="44.35284" lon="4.07256">
        <ele>373.22</ele>
        <time>2020-10-12T14:48:51.000Z</time>
      </trkpt>
      <trkpt lat="44.35266" lon="4.07261">
        <ele>374.91</ele>
        <time>2020-10-12T14:49:06.000Z</time>
      </trkpt>
      <trkpt lat="44.35247" lon="4.07256">
        <ele>373.87</ele>
        <time>2020-10-12T14:49:22.000Z</time>
      </trkpt>
      <trkpt lat="44.35229" lon="4.07251">
        <ele>370.09</ele>
        <time>2020-10-12T14:49:34.000Z</time>
      </trkpt>
      <trkpt lat="44.35211" lon="4.07245">
        <ele>371.29</ele>
        <time>2020-10-12T14:49:49.000Z</time>
      </trkpt>
      <trkpt lat="44.35195" lon="4.07233">
        <ele>371.62</ele>
        <time>2020-10-12T14:50:05.000Z</time>
      </trkpt>
      <trkpt lat="44.35178" lon="4.07227">
        <ele>374.97</ele>
        <time>2020-10-12T14:50:18.000Z</time>
      </trkpt>
      <trkpt lat="44.3516" lon="4.07215">
        <ele>372.96</ele>
        <time>2020-10-12T14:50:34.000Z</time>
      </trkpt>
      <trkpt lat="44.35143" lon="4.07207">
        <ele>375.11</ele>
        <time>2020-10-12T14:50:49.000Z</time>
      </trkpt>
      <trkpt lat="44.35125" lon="4.07202">
        <ele>379.99</ele>
        <time>2020-10-12T14:51:10.000Z</time>
      </trkpt>
      <trkpt lat="44.35106" lon="4.07194">
        <ele>380.93</ele>
        <time>2020-10-12T14:51:32.000Z</time>
      </trkpt>
      <trkpt lat="44.35089" lon="4.07188">
        <ele>377.84</ele>
        <time>2020-10-12T14:51:45.000Z</time>
      </trkpt>
      <trkpt lat="44.35073" lon="4.07174">
        <ele>377.24</ele>
        <time>2020-10-12T14:52:01.000Z</time>
      </trkpt>
      <trkpt lat="44.35055" lon="4.07166">
        <ele>377.32</ele>
        <time>2020-10-12T14:52:15.000Z</time>
      </trkpt>
      <trkpt lat="44.35038" lon="4.07155">
        <ele>383.29</ele>
        <time>2020-10-12T14:52:32.000Z</time>
      </trkpt>
      <trkpt lat="44.3502" lon="4.0715">
        <ele>381.25</ele>
        <time>2020-10-12T14:52:51.000Z</time>
      </trkpt>
      <trkpt lat="44.35002" lon="4.07143">
        <ele>382.82</ele>
        <time>2020-10-12T14:53:08.000Z</time>
      </trkpt>
      <trkpt lat="44.34984" lon="4.07141">
        <ele>385.12</ele>
        <time>2020-10-12T14:53:24.000Z</time>
      </trkpt>
      <trkpt lat="44.34965" lon="4.07136">
        <ele>385.14</ele>
        <time>2020-10-12T14:53:44.000Z</time>
      </trkpt>
      <trkpt lat="44.34946" lon="4.07132">
        <ele>389.65</ele>
        <time>2020-10-12T14:54:09.000Z</time>
      </trkpt>
      <trkpt lat="44.34929" lon="4.0714">
        <ele>394.31</ele>
        <time>2020-10-12T14:54:26.000Z</time>
      </trkpt>
      <trkpt lat="44.3491" lon="4.07134">
        <ele>392.43</ele>
        <time>2020-10-12T14:54:51.000Z</time>
      </trkpt>
      <trkpt lat="44.34892" lon="4.07129">
        <ele>402.66</ele>
        <time>2020-10-12T14:55:24.000Z</time>
      </trkpt>
      <trkpt lat="44.34873" lon="4.07127">
        <ele>407.76</ele>
        <time>2020-10-12T14:56:16.000Z</time>
      </trkpt>
      <trkpt lat="44.34857" lon="4.07137">
        <ele>414.9</ele>
        <time>2020-10-12T14:56:36.000Z</time>
      </trkpt>
      <trkpt lat="44.34838" lon="4.07143">
        <ele>422.31</ele>
        <time>2020-10-12T14:57:14.000Z</time>
      </trkpt>
      <trkpt lat="44.3482" lon="4.07141">
        <ele>429.7</ele>
        <time>2020-10-12T14:57:40.000Z</time>
      </trkpt>
      <trkpt lat="44.34804" lon="4.07152">
        <ele>438.72</ele>
        <time>2020-10-12T14:58:07.000Z</time>
      </trkpt>
      <trkpt lat="44.34786" lon="4.07161">
        <ele>433.16</ele>
        <time>2020-10-12T14:58:32.000Z</time>
      </trkpt>
      <trkpt lat="44.3477" lon="4.0717">
        <ele>435.3</ele>
        <time>2020-10-12T14:59:00.000Z</time>
      </trkpt>
      <trkpt lat="44.34763" lon="4.07147">
        <ele>430.8</ele>
        <time>2020-10-12T14:59:24.000Z</time>
      </trkpt>
      <trkpt lat="44.34769" lon="4.07122">
        <ele>429.2</ele>
        <time>2020-10-12T14:59:46.000Z</time>
      </trkpt>
      <trkpt lat="44.34771" lon="4.07097">
        <ele>444.68</ele>
        <time>2020-10-12T15:00:15.000Z</time>
      </trkpt>
      <trkpt lat="44.3478" lon="4.07075">
        <ele>448.05</ele>
        <time>2020-10-12T15:00:39.000Z</time>
      </trkpt>
      <trkpt lat="44.34763" lon="4.07082">
        <ele>453.02</ele>
        <time>2020-10-12T15:01:02.000Z</time>
      </trkpt>
      <trkpt lat="44.34749" lon="4.071">
        <ele>460.31</ele>
        <time>2020-10-12T15:01:42.000Z</time>
      </trkpt>
      <trkpt lat="44.34732" lon="4.07109">
        <ele>460.17</ele>
        <time>2020-10-12T15:02:02.000Z</time>
      </trkpt>
      <trkpt lat="44.34716" lon="4.07122">
        <ele>464.09</ele>
        <time>2020-10-12T15:02:20.000Z</time>
      </trkpt>
      <trkpt lat="44.347" lon="4.07135">
        <ele>466.7</ele>
        <time>2020-10-12T15:02:36.000Z</time>
      </trkpt>
      <trkpt lat="44.34682" lon="4.07141">
        <ele>467.45</ele>
        <time>2020-10-12T15:03:06.000Z</time>
      </trkpt>
      <trkpt lat="44.34671" lon="4.07162">
        <ele>464.04</ele>
        <time>2020-10-12T15:03:24.000Z</time>
      </trkpt>
      <trkpt lat="44.34662" lon="4.07183">
        <ele>464.79</ele>
        <time>2020-10-12T15:03:40.000Z</time>
      </trkpt>
      <trkpt lat="44.34649" lon="4.07202">
        <ele>465.43</ele>
        <time>2020-10-12T15:03:56.000Z</time>
      </trkpt>
      <trkpt lat="44.34642" lon="4.07227">
        <ele>462.46</ele>
        <time>2020-10-12T15:04:13.000Z</time>
      </trkpt>
      <trkpt lat="44.34641" lon="4.07253">
        <ele>465.3</ele>
        <time>2020-10-12T15:04:28.000Z</time>
      </trkpt>
      <trkpt lat="44.34638" lon="4.07278">
        <ele>465.11</ele>
        <time>2020-10-12T15:04:46.000Z</time>
      </trkpt>
      <trkpt lat="44.34642" lon="4.07304">
        <ele>465</ele>
        <time>2020-10-12T15:05:07.000Z</time>
      </trkpt>
      <trkpt lat="44.34652" lon="4.07326">
        <ele>461.94</ele>
        <time>2020-10-12T15:05:41.000Z</time>
      </trkpt>
      <trkpt lat="44.34633" lon="4.07328">
        <ele>457.23</ele>
        <time>2020-10-12T15:15:19.000Z</time>
      </trkpt>
      <trkpt lat="44.34613" lon="4.07321">
        <ele>457.64</ele>
        <time>2020-10-12T15:15:25.000Z</time>
      </trkpt>
      <trkpt lat="44.34595" lon="4.07313">
        <ele>459.56</ele>
        <time>2020-10-12T15:15:29.000Z</time>
      </trkpt>
    </trkseg>
  </trk>
</gpx>